Time,TemperatureF,DewpointF,PressureIn,WindDirection,WindDirectionDegrees,WindSpeedMPH,WindSpeedGustMPH,Humidity,HourlyPrecipIn,Conditions,Clouds,dailyrainin,SoftwareType,DateUTC
2013-04-10 00:03:00,50.1,27.3,29.87,NW,312,5.0,5.0,41,0.00,CLR,,0.00,WeatherDisplay:10.37,2013-04-10 06:03:00,
2013-04-10 00:04:00,50.0,27.2,29.87,West,266,4.6,4.6,41,0.00,CLR,,0.00,WeatherDisplay:10.37,2013-04-10 06:04:00,
2013-04-10 00:08:00,49.9,27.1,29.88,West,267,4.6,4.6,41,0.00,CLR,,0.00,WeatherDisplay:10.37,2013-04-10 06:08:00,
2013-04-10 00:09:00,49.9,27.1,29.88,West,277,4.6,4.6,41,0.00,CLR,,0.00,WeatherDisplay:10.37,2013-04-10 06:09:00,
2013-04-10 00:13:00,49.8,27.0,29.87,WNW,288,3.4,3.4,41,0.00,CLR,,0.00,WeatherDisplay:10.37,2013-04-10 06:13:00,
2013-04-10 00:14:00,49.8,27.0,29.87,NW,316,3.4,3.4,41,0.00,CLR,,0.00,WeatherDisplay:10.37,2013-04-10 06:14:00,
2013-04-10 00:15:00,49.7,26.9,29.87,WNW,294,5.0,5.0,41,0.00,CLR,,0.00,WeatherDisplay:10.37,2013-04-10 06:15:00,
2013-04-10 00:18:00,49.6,27.4,29.87,West,262,2.0,2.0,42,0.00,CLR,,0.00,WeatherDisplay:10.37,2013-04-10 06:18:00,
2013-04-10 00:19:00,49.6,27.4,29.88,WNW,284,3.4,3.4,42,0.00,CLR,,0.00,WeatherDisplay:10.37,2013-04-10 06:19:00,
2013-04-10 00:20:00,49.5,27.3,29.88,NW,308,4.0,4.0,42,0.00,CLR,,0.00,WeatherDisplay:10.37,2013-04-10 06:20:00,
2013-04-10 00:23:00,49.4,27.2,29.88,NW,315,4.6,4.6,42,0.00,CLR,,0.00,WeatherDisplay:10.37,2013-04-10 06:23:00,
2013-04-10 00:24:00,49.4,27.2,29.88,WNW,297,3.4,3.4,42,0.00,CLR,,0.00,WeatherDisplay:10.37,2013-04-10 06:24:00,
2013-04-10 00:25:00,49.3,27.2,29.88,WSW,254,3.4,3.4,42,0.00,CLR,,0.00,WeatherDisplay:10.37,2013-04-10 06:25:00,
2013-04-10 00:28:00,49.2,27.1,29.88,WNW,302,3.4,3.4,42,0.00,CLR,,0.00,WeatherDisplay:10.37,2013-04-10 06:28:00,
2013-04-10 00:29:00,49.2,27.1,29.88,West,278,2.3,2.3,42,0.00,CLR,,0.00,WeatherDisplay:10.37,2013-04-10 06:29:00,
2013-04-10 00:30:00,49.1,27.5,29.88,West,281,2.3,2.3,43,0.00,CLR,,0.00,WeatherDisplay:10.37,2013-04-10 06:30:00,
2013-04-10 00:33:00,49.1,27.5,29.89,West,267,3.4,3.4,43,0.00,CLR,,0.00,WeatherDisplay:10.37,2013-04-10 06:33:00,
2013-04-10 00:34:00,49.0,27.5,29.89,West,274,2.3,2.3,43,0.00,CLR,,0.00,WeatherDisplay:10.37,2013-04-10 06:34:00,
2013-04-10 00:35:00,49.0,27.5,29.89,WNW,288,2.3,2.3,43,0.00,CLR,,0.00,WeatherDisplay:10.37,2013-04-10 06:35:00,
2013-04-10 00:38:00,48.9,27.4,29.89,WNW,288,3.4,3.4,43,0.00,CLR,,0.00,WeatherDisplay:10.37,2013-04-10 06:38:00,
2013-04-10 00:39:00,48.9,27.4,29.89,WNW,288,3.4,3.4,43,0.00,CLR,,0.00,WeatherDisplay:10.37,2013-04-10 06:39:00,
2013-04-10 00:40:00,48.9,27.4,29.89,NW,315,2.3,2.3,43,0.00,CLR,,0.00,WeatherDisplay:10.37,2013-04-10 06:40:00,
2013-04-10 00:44:00,48.9,27.4,29.89,WNW,296,3.4,3.4,43,0.00,CLR,,0.00,WeatherDisplay:10.37,2013-04-10 06:44:00,
2013-04-10 00:45:00,48.9,27.4,29.90,West,280,3.4,3.4,43,0.00,CLR,,0.00,WeatherDisplay:10.37,2013-04-10 06:45:00,
2013-04-10 00:49:00,48.9,27.4,29.90,West,274,1.1,1.1,43,0.00,CLR,,0.00,WeatherDisplay:10.37,2013-04-10 06:49:00,
2013-04-10 00:50:00,48.9,27.4,29.90,West,274,0.0,0.0,43,0.00,CLR,,0.00,WeatherDisplay:10.37,2013-04-10 06:50:00,
2013-04-10 00:51:00,48.8,27.3,29.91,West,273,0.0,0.0,43,0.00,CLR,,0.00,WeatherDisplay:10.37,2013-04-10 06:51:00,
2013-04-10 00:54:00,48.7,27.2,29.91,SW,231,0.0,0.0,43,0.00,CLR,,0.00,WeatherDisplay:10.37,2013-04-10 06:54:00,
2013-04-10 00:55:00,48.7,27.2,29.91,SW,232,0.0,0.0,43,0.00,CLR,,0.00,WeatherDisplay:10.37,2013-04-10 06:55:00,
2013-04-10 00:56:00,48.7,27.2,29.91,SW,226,1.1,0.0,43,0.00,CLR,,0.00,WeatherDisplay:10.37,2013-04-10 06:56:00,
2013-04-10 00:59:00,48.6,27.1,29.91,SW,228,0.0,0.0,43,0.00,CLR,,0.00,WeatherDisplay:10.37,2013-04-10 06:59:00,
2013-04-10 01:00:00,48.6,27.1,29.91,SW,228,0.0,0.0,43,0.00,CLR,,0.00,WeatherDisplay:10.37,2013-04-10 07:00:00,
2013-04-10 01:01:00,48.5,27.0,29.91,SW,228,0.0,0.0,43,0.00,CLR,,0.00,WeatherDisplay:10.37,2013-04-10 07:01:00,
2013-04-10 01:04:00,48.5,27.0,29.91,SW,226,0.0,0.0,43,0.00,CLR,,0.00,WeatherDisplay:10.37,2013-04-10 07:04:00,
2013-04-10 01:05:00,48.5,27.6,29.91,SW,226,0.0,0.0,44,0.00,CLR,,0.00,WeatherDisplay:10.37,2013-04-10 07:05:00,
2013-04-10 01:06:00,48.5,27.6,29.91,SW,226,0.0,0.0,44,0.00,CLR,,0.00,WeatherDisplay:10.37,2013-04-10 07:06:00,
2013-04-10 01:09:00,48.5,27.6,29.91,SW,226,0.0,0.0,44,0.00,CLR,,0.00,WeatherDisplay:10.37,2013-04-10 07:09:00,
2013-04-10 01:10:00,48.4,27.5,29.91,SW,226,0.0,0.0,44,0.00,CLR,,0.00,WeatherDisplay:10.37,2013-04-10 07:10:00,
2013-04-10 01:11:00,48.4,27.5,29.91,SW,226,0.0,0.0,44,0.00,CLR,,0.00,WeatherDisplay:10.37,2013-04-10 07:11:00,
2013-04-10 01:14:00,48.4,27.5,29.91,SW,226,0.0,0.0,44,0.00,CLR,,0.00,WeatherDisplay:10.37,2013-04-10 07:14:00,
2013-04-10 01:15:00,48.4,27.5,29.90,SW,226,0.0,0.0,44,0.00,CLR,,0.00,WeatherDisplay:10.37,2013-04-10 07:15:00,
2013-04-10 01:16:00,48.4,27.5,29.90,SSW,211,0.0,0.0,44,0.00,CLR,,0.00,WeatherDisplay:10.37,2013-04-10 07:16:00,
2013-04-10 01:19:00,48.4,27.5,29.90,SSW,211,0.0,0.0,44,0.00,CLR,,0.00,WeatherDisplay:10.37,2013-04-10 07:19:00,
2013-04-10 01:20:00,48.4,27.5,29.90,SSW,211,0.0,0.0,44,0.00,CLR,,0.00,WeatherDisplay:10.37,2013-04-10 07:20:00,
2013-04-10 01:22:00,48.4,27.5,29.90,SSW,211,0.0,0.0,44,0.00,CLR,,0.00,WeatherDisplay:10.37,2013-04-10 07:22:00,
2013-04-10 01:24:00,48.4,27.5,29.90,West,265,1.1,1.1,44,0.00,CLR,,0.00,WeatherDisplay:10.37,2013-04-10 07:24:00,
2013-04-10 01:25:00,48.4,27.5,29.90,NW,311,1.1,1.1,44,0.00,CLR,,0.00,WeatherDisplay:10.37,2013-04-10 07:25:00,
2013-04-10 01:26:00,48.4,27.5,29.90,NW,310,1.1,0.0,44,0.00,CLR,,0.00,WeatherDisplay:10.37,2013-04-10 07:26:00,
2013-04-10 01:27:00,48.4,27.5,29.90,WNW,298,1.1,0.0,44,0.00,CLR,,0.00,WeatherDisplay:10.37,2013-04-10 07:27:00,
2013-04-10 01:29:00,48.4,27.5,29.89,NNW,340,1.1,1.1,44,0.00,CLR,,0.00,WeatherDisplay:10.37,2013-04-10 07:29:00,
2013-04-10 01:31:00,48.4,27.5,29.89,NNE,21,3.0,3.0,44,0.00,CLR,,0.00,WeatherDisplay:10.37,2013-04-10 07:31:00,
2013-04-10 01:32:00,48.4,27.5,29.89,NW,314,3.4,3.4,44,0.00,CLR,,0.00,WeatherDisplay:10.37,2013-04-10 07:32:00,
2013-04-10 01:34:00,48.5,27.0,29.89,WNW,284,2.3,2.3,43,0.00,CLR,,0.00,WeatherDisplay:10.37,2013-04-10 07:34:00,
2013-04-10 01:36:00,48.6,27.1,29.89,West,266,3.4,3.4,43,0.00,CLR,,0.00,WeatherDisplay:10.37,2013-04-10 07:36:00,
2013-04-10 01:37:00,48.7,27.2,29.89,NW,311,3.4,3.4,43,0.00,CLR,,0.00,WeatherDisplay:10.37,2013-04-10 07:37:00,
2013-04-10 01:39:00,48.8,27.3,29.89,WNW,300,3.4,3.4,43,0.00,CLR,,0.00,WeatherDisplay:10.37,2013-04-10 07:39:00,
2013-04-10 01:41:00,48.8,27.3,29.89,WNW,295,1.0,1.0,43,0.00,CLR,,0.00,WeatherDisplay:10.37,2013-04-10 07:41:00,
2013-04-10 01:42:00,48.8,27.3,29.89,WNW,287,3.0,3.0,43,0.00,CLR,,0.00,WeatherDisplay:10.37,2013-04-10 07:42:00,
2013-04-10 01:45:00,48.9,27.4,29.89,WSW,252,4.6,4.6,43,0.00,CLR,,0.00,WeatherDisplay:10.37,2013-04-10 07:45:00,
2013-04-10 01:46:00,48.9,26.8,29.89,SW,226,3.4,3.4,42,0.00,CLR,,0.00,WeatherDisplay:10.37,2013-04-10 07:46:00,
2013-04-10 01:47:00,48.9,27.4,29.89,WSW,249,3.4,3.4,43,0.00,CLR,,0.00,WeatherDisplay:10.37,2013-04-10 07:47:00,
2013-04-10 01:50:00,49.0,26.9,29.89,WSW,245,6.9,6.9,42,0.00,CLR,,0.00,WeatherDisplay:10.37,2013-04-10 07:50:00,
2013-04-10 01:51:00,49.0,27.5,29.89,SSW,208,2.3,2.3,43,0.00,CLR,,0.00,WeatherDisplay:10.37,2013-04-10 07:51:00,
2013-04-10 01:52:00,49.0,26.9,29.89,WNW,290,6.0,6.0,42,0.00,CLR,,0.00,WeatherDisplay:10.37,2013-04-10 07:52:00,
2013-04-10 01:53:00,49.0,26.9,29.89,WNW,293,5.0,5.4,42,0.00,CLR,,0.00,WeatherDisplay:10.37,2013-04-10 07:53:00,
2013-04-10 01:55:00,49.0,26.9,29.89,West,276,4.6,4.6,42,0.00,CLR,,0.00,WeatherDisplay:10.37,2013-04-10 07:55:00,
2013-04-10 01:56:00,49.0,26.9,29.90,WNW,288,3.4,3.4,42,0.00,CLR,,0.00,WeatherDisplay:10.37,2013-04-10 07:56:00,
2013-04-10 01:57:00,49.0,27.5,29.89,WSW,247,5.8,5.8,43,0.00,CLR,,0.00,WeatherDisplay:10.37,2013-04-10 07:57:00,
2013-04-10 01:58:00,49.0,27.5,29.90,West,273,5.8,5.8,43,0.00,CLR,,0.00,WeatherDisplay:10.37,2013-04-10 07:58:00,
2013-04-10 02:00:00,48.9,26.8,29.90,WSW,242,2.3,2.3,42,0.00,CLR,,0.00,WeatherDisplay:10.37,2013-04-10 08:00:00,
2013-04-10 02:02:00,48.9,27.4,29.90,West,272,3.4,3.4,43,0.00,CLR,,0.00,WeatherDisplay:10.37,2013-04-10 08:02:00,
2013-04-10 02:03:00,48.9,27.4,29.89,SW,229,3.4,3.4,43,0.00,CLR,,0.00,WeatherDisplay:10.37,2013-04-10 08:03:00,
2013-04-10 02:06:00,48.8,27.3,29.90,West,272,3.4,3.4,43,0.00,CLR,,0.00,WeatherDisplay:10.37,2013-04-10 08:06:00,
2013-04-10 02:07:00,48.8,27.3,29.89,SW,222,2.0,2.0,43,0.00,CLR,,0.00,WeatherDisplay:10.37,2013-04-10 08:07:00,
2013-04-10 02:08:00,48.7,27.2,29.89,SW,225,3.4,3.4,43,0.00,CLR,,0.00,WeatherDisplay:10.37,2013-04-10 08:08:00,
2013-04-10 02:11:00,48.6,27.1,29.89,SW,232,1.1,0.0,43,0.00,CLR,,0.00,WeatherDisplay:10.37,2013-04-10 08:11:00,
2013-04-10 02:12:00,48.6,27.1,29.89,SW,234,0.0,0.0,43,0.00,CLR,,0.00,WeatherDisplay:10.37,2013-04-10 08:12:00,
2013-04-10 02:13:00,48.5,27.0,29.89,SW,235,0.0,0.0,43,0.00,CLR,,0.00,WeatherDisplay:10.37,2013-04-10 08:13:00,
2013-04-10 02:16:00,48.4,27.5,29.90,WNW,288,3.0,3.0,44,0.00,CLR,,0.00,WeatherDisplay:10.37,2013-04-10 08:16:00,
2013-04-10 02:17:00,48.4,27.5,29.89,WNW,284,3.4,3.4,44,0.00,CLR,,0.00,WeatherDisplay:10.37,2013-04-10 08:17:00,
2013-04-10 02:18:00,48.4,27.5,29.89,WNW,283,3.4,3.4,44,0.00,CLR,,0.00,WeatherDisplay:10.37,2013-04-10 08:18:00,
2013-04-10 02:21:00,48.4,27.5,29.89,WNW,284,3.4,3.4,44,0.00,CLR,,0.00,WeatherDisplay:10.37,2013-04-10 08:21:00,
2013-04-10 02:22:00,48.4,27.5,29.89,West,266,2.3,2.3,44,0.00,CLR,,0.00,WeatherDisplay:10.37,2013-04-10 08:22:00,
2013-04-10 02:23:00,48.4,27.5,29.89,West,266,1.1,1.1,44,0.00,CLR,,0.00,WeatherDisplay:10.37,2013-04-10 08:23:00,
2013-04-10 02:26:00,48.4,27.5,29.89,West,264,1.1,1.1,44,0.00,CLR,,0.00,WeatherDisplay:10.37,2013-04-10 08:26:00,
2013-04-10 02:28:00,48.4,27.5,29.89,West,277,1.1,1.1,44,0.00,CLR,,0.00,WeatherDisplay:10.37,2013-04-10 08:28:00,
2013-04-10 02:31:00,48.3,27.4,29.89,West,281,1.1,0.0,44,0.00,CLR,,0.00,WeatherDisplay:10.37,2013-04-10 08:31:00,
2013-04-10 02:33:00,48.3,27.4,29.89,West,277,3.4,3.4,44,0.00,CLR,,0.00,WeatherDisplay:10.37,2013-04-10 08:33:00,
2013-04-10 02:34:00,48.3,27.4,29.89,West,281,1.0,3.0,44,0.00,CLR,,0.00,WeatherDisplay:10.37,2013-04-10 08:34:00,
2013-04-10 02:36:00,48.3,26.8,29.89,West,274,1.1,1.1,43,0.00,CLR,,0.00,WeatherDisplay:10.37,2013-04-10 08:36:00,
2013-04-10 02:38:00,48.3,27.4,29.89,West,274,0.0,0.0,44,0.00,CLR,,0.00,WeatherDisplay:10.37,2013-04-10 08:38:00,
2013-04-10 02:39:00,48.3,27.4,29.89,West,274,0.0,0.0,44,0.00,CLR,,0.00,WeatherDisplay:10.37,2013-04-10 08:39:00,
2013-04-10 02:41:00,48.2,27.3,29.89,NW,307,2.0,2.0,44,0.00,CLR,,0.00,WeatherDisplay:10.37,2013-04-10 08:41:00,
2013-04-10 02:43:00,48.3,27.4,29.89,WSW,257,1.1,1.1,44,0.00,CLR,,0.00,WeatherDisplay:10.37,2013-04-10 08:43:00,
2013-04-10 02:44:00,48.3,27.4,29.89,WSW,257,1.1,0.0,44,0.00,CLR,,0.00,WeatherDisplay:10.37,2013-04-10 08:44:00,
2013-04-10 02:46:00,48.2,27.3,29.89,NW,309,3.4,3.4,44,0.00,CLR,,0.00,WeatherDisplay:10.37,2013-04-10 08:46:00,
2013-04-10 02:48:00,48.3,26.8,29.89,West,278,4.0,4.0,43,0.00,CLR,,0.00,WeatherDisplay:10.37,2013-04-10 08:48:00,
2013-04-10 02:49:00,48.3,26.8,29.89,South,185,4.6,4.6,43,0.00,CLR,,0.00,WeatherDisplay:10.37,2013-04-10 08:49:00,
2013-04-10 02:51:00,48.3,26.8,29.88,West,264,2.3,2.3,43,0.00,CLR,,0.00,WeatherDisplay:10.37,2013-04-10 08:51:00,
2013-04-10 02:53:00,48.4,26.9,29.89,WNW,284,3.4,3.4,43,0.00,CLR,,0.00,WeatherDisplay:10.37,2013-04-10 08:53:00,
2013-04-10 02:54:00,48.4,26.9,29.88,WNW,292,3.4,3.4,43,0.00,CLR,,0.00,WeatherDisplay:10.37,2013-04-10 08:54:00,
2013-04-10 02:56:00,48.5,26.4,29.88,West,277,5.8,5.8,42,0.00,CLR,,0.00,WeatherDisplay:10.37,2013-04-10 08:56:00,
2013-04-10 02:58:00,48.5,26.4,29.88,West,277,4.6,4.6,42,0.00,CLR,,0.00,WeatherDisplay:10.37,2013-04-10 08:58:00,
2013-04-10 02:59:00,48.5,26.4,29.88,West,281,3.4,3.4,42,0.00,CLR,,0.00,WeatherDisplay:10.37,2013-04-10 08:59:00,
2013-04-10 03:02:00,48.5,26.4,29.88,WNW,295,3.4,3.4,42,0.00,CLR,,0.00,WeatherDisplay:10.37,2013-04-10 09:02:00,
2013-04-10 03:03:00,48.5,26.4,29.88,West,281,5.8,5.8,42,0.00,CLR,,0.00,WeatherDisplay:10.37,2013-04-10 09:03:00,
2013-04-10 03:04:00,48.5,26.4,29.88,WNW,300,5.8,5.8,42,0.00,CLR,,0.00,WeatherDisplay:10.37,2013-04-10 09:04:00,
2013-04-10 03:07:00,48.5,26.4,29.88,NW,311,3.4,3.4,42,0.00,CLR,,0.00,WeatherDisplay:10.37,2013-04-10 09:07:00,
2013-04-10 03:08:00,48.5,26.4,29.88,WNW,291,3.4,3.4,42,0.00,CLR,,0.00,WeatherDisplay:10.37,2013-04-10 09:08:00,
2013-04-10 03:09:00,48.4,26.3,29.88,NW,312,2.3,2.3,42,0.00,CLR,,0.00,WeatherDisplay:10.37,2013-04-10 09:09:00,
2013-04-10 03:12:00,48.3,26.8,29.88,WNW,298,3.4,3.4,43,0.00,CLR,,0.00,WeatherDisplay:10.37,2013-04-10 09:12:00,
2013-04-10 03:14:00,48.2,26.7,29.88,WNW,283,0.0,0.0,43,0.00,CLR,,0.00,WeatherDisplay:10.37,2013-04-10 09:14:00,
2013-04-10 03:17:00,48.1,26.6,29.88,WNW,288,3.4,3.4,43,0.00,CLR,,0.00,WeatherDisplay:10.37,2013-04-10 09:17:00,
2013-04-10 03:19:00,48.0,26.5,29.88,WNW,290,5.8,5.8,43,0.00,CLR,,0.00,WeatherDisplay:10.37,2013-04-10 09:19:00,
2013-04-10 03:22:00,47.8,26.9,29.88,WNW,285,4.6,4.6,44,0.00,CLR,,0.00,WeatherDisplay:10.37,2013-04-10 09:22:00,
2013-04-10 03:24:00,47.7,26.8,29.88,SW,222,4.6,4.6,44,0.00,CLR,,0.00,WeatherDisplay:10.37,2013-04-10 09:24:00,
2013-04-10 03:27:00,47.5,26.6,29.88,WSW,238,2.0,2.0,44,0.00,CLR,,0.00,WeatherDisplay:10.37,2013-04-10 09:27:00,
2013-04-10 03:29:00,47.4,27.1,29.88,NW,315,3.4,3.4,45,0.00,CLR,,0.00,WeatherDisplay:10.37,2013-04-10 09:29:00,
2013-04-10 03:30:00,47.4,27.1,29.88,West,277,2.3,2.3,45,0.00,CLR,,0.00,WeatherDisplay:10.37,2013-04-10 09:30:00,
2013-04-10 03:33:00,47.3,27.0,29.88,West,277,1.1,1.1,45,0.00,CLR,,0.00,WeatherDisplay:10.37,2013-04-10 09:33:00,
2013-04-10 03:34:00,47.2,26.9,29.89,WSW,253,2.3,2.3,45,0.00,CLR,,0.00,WeatherDisplay:10.37,2013-04-10 09:34:00,
2013-04-10 03:35:00,47.2,26.9,29.89,WSW,249,4.6,4.6,45,0.00,CLR,,0.00,WeatherDisplay:10.37,2013-04-10 09:35:00,
2013-04-10 03:38:00,47.0,27.3,29.89,WSW,255,1.1,0.0,46,0.00,CLR,,0.00,WeatherDisplay:10.37,2013-04-10 09:38:00,
2013-04-10 03:39:00,46.9,27.2,29.89,West,276,2.0,2.0,46,0.00,CLR,,0.00,WeatherDisplay:10.37,2013-04-10 09:39:00,
2013-04-10 03:40:00,46.9,27.2,29.89,West,276,2.3,2.3,46,0.00,CLR,,0.00,WeatherDisplay:10.37,2013-04-10 09:40:00,
2013-04-10 03:43:00,46.8,27.1,29.89,SW,217,3.4,3.4,46,0.00,CLR,,0.00,WeatherDisplay:10.37,2013-04-10 09:43:00,
2013-04-10 03:45:00,46.6,27.4,29.89,WSW,248,1.1,1.1,47,0.00,CLR,,0.00,WeatherDisplay:10.37,2013-04-10 09:45:00,
2013-04-10 03:48:00,46.5,27.3,29.89,West,270,1.1,1.1,47,0.00,CLR,,0.00,WeatherDisplay:10.37,2013-04-10 09:48:00,
2013-04-10 03:50:00,46.3,27.2,29.89,West,270,0.0,0.0,47,0.00,CLR,,0.00,WeatherDisplay:10.37,2013-04-10 09:50:00,
2013-04-10 03:51:00,46.2,27.1,29.89,WSW,255,1.1,0.0,47,0.00,CLR,,0.00,WeatherDisplay:10.37,2013-04-10 09:51:00,
2013-04-10 03:53:00,46.1,27.5,29.89,West,266,1.1,1.1,48,0.00,CLR,,0.00,WeatherDisplay:10.37,2013-04-10 09:53:00,
2013-04-10 03:55:00,46.0,27.4,29.89,West,262,3.4,3.4,48,0.00,CLR,,0.00,WeatherDisplay:10.37,2013-04-10 09:55:00,
2013-04-10 03:56:00,46.0,27.4,29.89,SW,225,2.3,0.0,48,0.00,CLR,,0.00,WeatherDisplay:10.37,2013-04-10 09:56:00,
2013-04-10 03:58:00,45.9,27.3,29.89,SW,226,1.1,0.0,48,0.00,CLR,,0.00,WeatherDisplay:10.37,2013-04-10 09:58:00,
2013-04-10 04:00:00,45.8,27.7,29.89,SSW,210,1.1,1.1,49,0.00,CLR,,0.00,WeatherDisplay:10.37,2013-04-10 10:00:00,
2013-04-10 04:01:00,45.7,27.6,29.89,SW,232,1.1,1.1,49,0.00,CLR,,0.00,WeatherDisplay:10.37,2013-04-10 10:01:00,
2013-04-10 04:03:00,45.7,27.6,29.89,WSW,246,3.4,3.4,49,0.00,CLR,,0.00,WeatherDisplay:10.37,2013-04-10 10:03:00,
2013-04-10 04:05:00,45.6,27.5,29.89,SW,228,4.6,4.6,49,0.00,CLR,,0.00,WeatherDisplay:10.37,2013-04-10 10:05:00,
2013-04-10 04:06:00,45.6,27.5,29.89,WNW,285,1.1,1.1,49,0.00,CLR,,0.00,WeatherDisplay:10.37,2013-04-10 10:06:00,
2013-04-10 04:08:00,45.5,27.9,29.89,WNW,283,1.1,0.0,50,0.00,CLR,,0.00,WeatherDisplay:10.37,2013-04-10 10:08:00,
2013-04-10 04:10:00,45.4,27.8,29.89,West,280,0.0,0.0,50,0.00,CLR,,0.00,WeatherDisplay:10.37,2013-04-10 10:10:00,
2013-04-10 04:11:00,45.3,27.7,29.89,WNW,297,1.1,1.1,50,0.00,CLR,,0.00,WeatherDisplay:10.37,2013-04-10 10:11:00,
2013-04-10 04:13:00,45.2,27.6,29.89,WSW,238,2.3,2.3,50,0.00,CLR,,0.00,WeatherDisplay:10.37,2013-04-10 10:13:00,
2013-04-10 04:15:00,45.1,28.0,29.89,WSW,253,2.3,2.3,51,0.00,CLR,,0.00,WeatherDisplay:10.37,2013-04-10 10:15:00,
2013-04-10 04:17:00,45.1,28.0,29.89,WSW,250,1.1,1.1,51,0.00,CLR,,0.00,WeatherDisplay:10.37,2013-04-10 10:17:00,
2013-04-10 04:18:00,45.1,28.0,29.89,WNW,302,5.0,5.0,51,0.00,CLR,,0.00,WeatherDisplay:10.37,2013-04-10 10:18:00,
2013-04-10 04:20:00,45.1,28.5,29.89,WNW,291,2.3,2.3,52,0.00,CLR,,0.00,WeatherDisplay:10.37,2013-04-10 10:20:00,
2013-04-10 04:21:00,45.1,28.5,29.89,West,273,4.6,4.6,52,0.00,CLR,,0.00,WeatherDisplay:10.37,2013-04-10 10:21:00,
2013-04-10 04:22:00,45.1,28.5,29.89,WSW,238,1.1,1.1,52,0.00,CLR,,0.00,WeatherDisplay:10.37,2013-04-10 10:22:00,
2013-04-10 04:23:00,45.1,28.5,29.89,SW,228,1.1,1.1,52,0.00,CLR,,0.00,WeatherDisplay:10.37,2013-04-10 10:23:00,
2013-04-10 04:26:00,45.0,28.4,29.89,West,274,2.0,2.0,52,0.00,CLR,,0.00,WeatherDisplay:10.37,2013-04-10 10:26:00,
2013-04-10 04:27:00,44.9,28.3,29.89,West,279,2.3,2.3,52,0.00,CLR,,0.00,WeatherDisplay:10.37,2013-04-10 10:27:00,
2013-04-10 04:28:00,44.9,28.3,29.89,West,262,1.1,1.1,52,0.00,CLR,,0.00,WeatherDisplay:10.37,2013-04-10 10:28:00,
2013-04-10 04:31:00,44.8,28.7,29.89,WNW,293,3.4,3.4,53,0.00,CLR,,0.00,WeatherDisplay:10.37,2013-04-10 10:31:00,
2013-04-10 04:32:00,44.7,28.6,29.89,West,277,1.1,1.1,53,0.00,CLR,,0.00,WeatherDisplay:10.37,2013-04-10 10:32:00,
2013-04-10 04:33:00,44.7,28.6,29.89,SW,234,1.0,0.0,53,0.00,CLR,,0.00,WeatherDisplay:10.37,2013-04-10 10:33:00,
2013-04-10 04:36:00,44.5,28.4,29.89,SW,225,0.0,0.0,53,0.00,CLR,,0.00,WeatherDisplay:10.37,2013-04-10 10:36:00,
2013-04-10 04:37:00,44.5,28.4,29.89,WNW,283,1.1,1.1,53,0.00,CLR,,0.00,WeatherDisplay:10.37,2013-04-10 10:37:00,
2013-04-10 04:39:00,44.5,28.4,29.90,West,262,1.0,3.0,53,0.00,CLR,,0.00,WeatherDisplay:10.37,2013-04-10 10:39:00,
2013-04-10 04:41:00,44.4,28.8,29.90,West,281,0.0,0.0,54,0.00,CLR,,0.00,WeatherDisplay:10.37,2013-04-10 10:41:00,
2013-04-10 04:42:00,44.4,28.8,29.90,West,281,0.0,0.0,54,0.00,CLR,,0.00,WeatherDisplay:10.37,2013-04-10 10:42:00,
2013-04-10 04:44:00,44.3,28.7,29.90,WNW,294,2.3,2.3,54,0.00,CLR,,0.00,WeatherDisplay:10.37,2013-04-10 10:44:00,
2013-04-10 04:46:00,44.3,28.7,29.90,WNW,294,1.1,0.0,54,0.00,CLR,,0.00,WeatherDisplay:10.37,2013-04-10 10:46:00,
2013-04-10 04:47:00,44.3,28.7,29.90,NW,305,2.0,2.0,54,0.00,CLR,,0.00,WeatherDisplay:10.37,2013-04-10 10:47:00,
2013-04-10 04:48:00,44.2,28.6,29.90,SW,215,2.3,2.3,54,0.00,CLR,,0.00,WeatherDisplay:10.37,2013-04-10 10:48:00,
2013-04-10 04:49:00,44.2,28.6,29.90,WSW,257,2.3,2.3,54,0.00,CLR,,0.00,WeatherDisplay:10.37,2013-04-10 10:49:00,
2013-04-10 04:51:00,44.1,28.9,29.90,WNW,285,3.4,3.4,55,0.00,CLR,,0.00,WeatherDisplay:10.37,2013-04-10 10:51:00,
2013-04-10 04:52:00,44.1,28.9,29.90,West,278,4.6,4.6,55,0.00,CLR,,0.00,WeatherDisplay:10.37,2013-04-10 10:52:00,
2013-04-10 04:53:00,44.1,28.9,29.90,West,276,4.6,4.6,55,0.00,CLR,,0.00,WeatherDisplay:10.37,2013-04-10 10:53:00,
2013-04-10 04:54:00,44.1,28.5,29.90,West,278,2.3,2.3,54,0.00,CLR,,0.00,WeatherDisplay:10.37,2013-04-10 10:54:00,
2013-04-10 04:56:00,43.9,28.8,29.90,West,279,1.0,0.0,55,0.00,CLR,,0.00,WeatherDisplay:10.37,2013-04-10 10:56:00,
2013-04-10 04:57:00,43.9,28.8,29.90,NW,320,1.1,1.1,55,0.00,CLR,,0.00,WeatherDisplay:10.37,2013-04-10 10:57:00,
2013-04-10 04:58:00,43.9,28.8,29.90,NW,316,1.1,1.1,55,0.00,CLR,,0.00,WeatherDisplay:10.37,2013-04-10 10:58:00,
2013-04-10 04:59:00,43.8,28.7,29.90,NW,318,2.0,0.0,55,0.00,CLR,,0.00,WeatherDisplay:10.37,2013-04-10 10:59:00,
2013-04-10 05:02:00,43.8,28.7,29.90,WNW,293,0.0,0.0,55,0.00,CLR,,0.00,WeatherDisplay:10.37,2013-04-10 11:02:00,
2013-04-10 05:03:00,43.8,28.7,29.90,NNW,333,3.4,3.4,55,0.00,CLR,,0.00,WeatherDisplay:10.37,2013-04-10 11:03:00,
2013-04-10 05:04:00,43.7,28.6,29.90,WNW,301,1.1,1.1,55,0.00,CLR,,0.00,WeatherDisplay:10.37,2013-04-10 11:04:00,
2013-04-10 05:07:00,43.7,28.6,29.90,WNW,302,1.1,0.0,55,0.00,CLR,,0.00,WeatherDisplay:10.37,2013-04-10 11:07:00,
2013-04-10 05:08:00,43.6,28.5,29.90,WNW,302,0.0,0.0,55,0.00,CLR,,0.00,WeatherDisplay:10.37,2013-04-10 11:08:00,
2013-04-10 05:09:00,43.6,28.5,29.90,WNW,302,1.1,0.0,55,0.00,CLR,,0.00,WeatherDisplay:10.37,2013-04-10 11:09:00,
2013-04-10 05:12:00,43.5,28.8,29.90,West,276,1.1,0.0,56,0.00,CLR,,0.00,WeatherDisplay:10.37,2013-04-10 11:12:00,
2013-04-10 05:13:00,43.4,28.7,29.91,West,276,1.1,0.0,56,0.00,CLR,,0.00,WeatherDisplay:10.37,2013-04-10 11:13:00,
2013-04-10 05:14:00,43.4,28.7,29.91,SW,214,0.0,0.0,56,0.00,CLR,,0.00,WeatherDisplay:10.37,2013-04-10 11:14:00,
2013-04-10 05:17:00,43.2,28.5,29.91,SW,224,0.0,0.0,56,0.00,CLR,,0.00,WeatherDisplay:10.37,2013-04-10 11:17:00,
2013-04-10 05:18:00,43.2,28.5,29.91,WSW,252,0.0,0.0,56,0.00,CLR,,0.00,WeatherDisplay:10.37,2013-04-10 11:18:00,
2013-04-10 05:19:00,43.2,29.0,29.91,West,271,0.0,0.0,57,0.00,CLR,,0.00,WeatherDisplay:10.37,2013-04-10 11:19:00,
2013-04-10 05:22:00,43.2,29.0,29.91,West,271,0.0,0.0,57,0.00,CLR,,0.00,WeatherDisplay:10.37,2013-04-10 11:22:00,
2013-04-10 05:23:00,43.1,28.9,29.91,West,271,1.1,0.0,57,0.00,CLR,,0.00,WeatherDisplay:10.37,2013-04-10 11:23:00,
2013-04-10 05:24:00,43.2,28.9,29.91,West,259,0.0,1.0,57,0.00,CLR,,0.00,WeatherDisplay:10.37,2013-04-10 11:24:00,
2013-04-10 05:27:00,43.1,28.9,29.91,SW,232,0.0,0.0,57,0.00,CLR,,0.00,WeatherDisplay:10.37,2013-04-10 11:27:00,
2013-04-10 05:28:00,43.0,28.8,29.91,SW,232,0.0,0.0,57,0.00,CLR,,0.00,WeatherDisplay:10.37,2013-04-10 11:28:00,
2013-04-10 05:29:00,43.0,28.8,29.91,SW,232,0.0,0.0,57,0.00,CLR,,0.00,WeatherDisplay:10.37,2013-04-10 11:29:00,
2013-04-10 05:32:00,42.8,28.6,29.91,SW,231,0.0,0.0,57,0.00,CLR,,0.00,WeatherDisplay:10.37,2013-04-10 11:32:00,
2013-04-10 05:33:00,42.8,28.6,29.91,SW,231,0.0,0.0,57,0.00,CLR,,0.00,WeatherDisplay:10.37,2013-04-10 11:33:00,
2013-04-10 05:34:00,42.8,28.6,29.91,SW,235,0.0,0.0,57,0.00,CLR,,0.00,WeatherDisplay:10.37,2013-04-10 11:34:00,
2013-04-10 05:35:00,42.7,28.5,29.91,ENE,70,0.0,0.0,57,0.00,CLR,,0.00,WeatherDisplay:10.37,2013-04-10 11:35:00,
2013-04-10 05:38:00,42.7,28.9,29.91,WNW,291,0.0,0.1,58,0.00,CLR,,0.00,WeatherDisplay:10.37,2013-04-10 11:38:00,
2013-04-10 05:39:00,42.7,28.9,29.91,West,278,1.1,0.0,58,0.00,CLR,,0.00,WeatherDisplay:10.37,2013-04-10 11:39:00,
2013-04-10 05:40:00,42.7,28.5,29.91,NW,315,1.1,1.1,57,0.00,CLR,,0.00,WeatherDisplay:10.37,2013-04-10 11:40:00,
2013-04-10 05:43:00,42.7,28.5,29.91,North,352,0.0,0.0,57,0.00,CLR,,0.00,WeatherDisplay:10.37,2013-04-10 11:43:00,
2013-04-10 05:44:00,42.7,28.5,29.91,NW,319,0.0,2.0,57,0.00,CLR,,0.00,WeatherDisplay:10.37,2013-04-10 11:44:00,
2013-04-10 05:45:00,42.7,28.5,29.91,NNW,344,0.0,0.0,57,0.00,CLR,,0.00,WeatherDisplay:10.37,2013-04-10 11:45:00,
2013-04-10 05:48:00,42.7,28.5,29.91,NNW,344,2.3,2.3,57,0.00,CLR,,0.00,WeatherDisplay:10.37,2013-04-10 11:48:00,
2013-04-10 05:49:00,42.7,28.5,29.91,NW,317,2.3,2.3,57,0.00,CLR,,0.00,WeatherDisplay:10.37,2013-04-10 11:49:00,
2013-04-10 05:50:00,42.7,28.5,29.91,WNW,285,2.3,0.0,57,0.00,CLR,,0.00,WeatherDisplay:10.37,2013-04-10 11:50:00,
2013-04-10 05:53:00,42.7,28.5,29.91,NE,34,1.1,1.1,57,0.00,CLR,,0.00,WeatherDisplay:10.37,2013-04-10 11:53:00,
2013-04-10 05:54:00,42.8,28.6,29.91,NE,34,3.4,3.4,57,0.00,CLR,,0.00,WeatherDisplay:10.37,2013-04-10 11:54:00,
2013-04-10 05:56:00,42.8,28.6,29.91,NNE,17,2.0,2.0,57,0.00,CLR,,0.00,WeatherDisplay:10.37,2013-04-10 11:56:00,
2013-04-10 05:58:00,42.9,28.7,29.91,NNE,17,1.1,1.1,57,0.00,CLR,,0.00,WeatherDisplay:10.37,2013-04-10 11:58:00,
2013-04-10 06:00:00,42.8,28.6,29.91,NNE,16,2.3,2.3,57,0.00,CLR,,0.00,WeatherDisplay:10.37,2013-04-10 12:00:00,
2013-04-10 06:01:00,42.9,28.7,29.91,NNE,16,1.1,1.1,57,0.00,CLR,,0.00,WeatherDisplay:10.37,2013-04-10 12:01:00,
2013-04-10 06:04:00,42.8,28.6,29.91,NNE,16,0.0,0.0,57,0.00,CLR,,0.00,WeatherDisplay:10.37,2013-04-10 12:04:00,
2013-04-10 06:05:00,42.7,28.5,29.91,North,10,1.1,0.0,57,0.00,CLR,,0.00,WeatherDisplay:10.37,2013-04-10 12:05:00,
2013-04-10 06:07:00,42.7,28.5,29.92,NNE,28,2.0,2.0,57,0.00,CLR,,0.00,WeatherDisplay:10.37,2013-04-10 12:07:00,
2013-04-10 06:09:00,42.6,28.8,29.92,North,8,1.1,0.0,58,0.00,CLR,,0.00,WeatherDisplay:10.37,2013-04-10 12:09:00,
2013-04-10 06:10:00,42.6,28.8,29.92,NNE,19,2.3,2.3,58,0.00,CLR,,0.00,WeatherDisplay:10.37,2013-04-10 12:10:00,
2013-04-10 06:12:00,42.6,28.4,29.92,NE,34,3.4,3.4,57,0.00,CLR,,0.00,WeatherDisplay:10.37,2013-04-10 12:12:00,
2013-04-10 06:14:00,42.7,28.5,29.92,NNE,18,1.1,1.1,57,0.00,CLR,,0.00,WeatherDisplay:10.37,2013-04-10 12:14:00,
2013-04-10 06:15:00,42.7,28.5,29.92,NNE,24,2.3,2.3,57,0.00,CLR,,0.00,WeatherDisplay:10.37,2013-04-10 12:15:00,
2013-04-10 06:17:00,42.6,28.4,29.92,NE,53,1.1,0.0,57,0.00,CLR,,0.00,WeatherDisplay:10.37,2013-04-10 12:17:00,
2013-04-10 06:19:00,42.7,28.5,29.92,NE,53,1.1,0.0,57,0.00,CLR,,0.00,WeatherDisplay:10.37,2013-04-10 12:19:00,
2013-04-10 06:20:00,42.6,28.4,29.92,NE,53,1.1,0.0,57,0.00,CLR,,0.00,WeatherDisplay:10.37,2013-04-10 12:20:00,
2013-04-10 06:22:00,42.6,28.4,29.92,NE,53,0.0,0.0,57,0.00,CLR,,0.00,WeatherDisplay:10.37,2013-04-10 12:22:00,
2013-04-10 06:24:00,42.5,28.3,29.92,ENE,62,0.0,0.1,57,0.00,CLR,,0.00,WeatherDisplay:10.37,2013-04-10 12:24:00,
2013-04-10 06:25:00,42.5,28.3,29.92,ENE,63,1.1,1.1,57,0.00,CLR,,0.00,WeatherDisplay:10.37,2013-04-10 12:25:00,
2013-04-10 06:27:00,42.4,28.2,29.92,ENE,62,0.0,0.0,57,0.00,CLR,,0.00,WeatherDisplay:10.37,2013-04-10 12:27:00,
2013-04-10 06:30:00,42.1,28.4,29.92,ENE,62,0.0,0.0,58,0.00,CLR,,0.00,WeatherDisplay:10.37,2013-04-10 12:30:00,
2013-04-10 06:32:00,41.9,28.2,29.92,ENE,62,0.0,0.0,58,0.00,CLR,,0.00,WeatherDisplay:10.37,2013-04-10 12:32:00,
2013-04-10 06:35:00,41.9,28.2,29.92,ENE,74,0.0,0.0,58,0.00,CLR,,0.00,WeatherDisplay:10.37,2013-04-10 12:35:00,
2013-04-10 06:37:00,41.9,28.2,29.92,East,86,0.0,0.1,58,0.00,CLR,,0.00,WeatherDisplay:10.37,2013-04-10 12:37:00,
2013-04-10 06:40:00,41.8,28.1,29.92,East,96,0.0,0.0,58,0.00,CLR,,0.00,WeatherDisplay:10.37,2013-04-10 12:40:00,
2013-04-10 06:42:00,41.7,28.4,29.92,NNW,330,0.0,0.0,59,0.00,CLR,,0.00,WeatherDisplay:10.37,2013-04-10 12:42:00,
2013-04-10 06:45:00,41.7,28.4,29.92,North,359,1.1,1.1,59,0.00,CLR,,0.00,WeatherDisplay:10.37,2013-04-10 12:45:00,
2013-04-10 06:48:00,42.0,28.7,29.93,NE,39,1.1,1.1,59,0.00,CLR,,0.00,WeatherDisplay:10.37,2013-04-10 12:48:00,
2013-04-10 06:50:00,42.2,28.5,29.93,NE,36,1.1,0.0,58,0.00,CLR,,0.00,WeatherDisplay:10.37,2013-04-10 12:50:00,
2013-04-10 06:53:00,42.4,28.7,29.93,NNE,29,1.1,1.1,58,0.00,CLR,,0.00,WeatherDisplay:10.37,2013-04-10 12:53:00,
2013-04-10 06:55:00,42.5,28.3,29.93,NNE,27,0.0,0.0,57,0.00,CLR,,0.00,WeatherDisplay:10.37,2013-04-10 12:55:00,
2013-04-10 06:58:00,42.5,28.3,29.93,NNE,27,0.0,0.0,57,0.00,CLR,,0.00,WeatherDisplay:10.37,2013-04-10 12:58:00,
2013-04-10 07:00:00,42.5,28.3,29.93,NNE,27,0.0,0.0,57,0.00,CLR,,0.00,WeatherDisplay:10.37,2013-04-10 13:00:00,
2013-04-10 07:01:00,42.5,28.3,29.93,NNE,27,0.0,0.0,57,0.00,CLR,,0.00,WeatherDisplay:10.37,2013-04-10 13:01:00,
2013-04-10 07:03:00,42.7,28.5,29.93,NNE,27,0.0,0.0,57,0.00,CLR,,0.00,WeatherDisplay:10.37,2013-04-10 13:03:00,
2013-04-10 07:05:00,42.7,28.5,29.93,NNE,27,0.0,0.0,57,0.00,CLR,,0.00,WeatherDisplay:10.37,2013-04-10 13:05:00,
2013-04-10 07:06:00,42.6,28.4,29.93,NNE,27,0.0,0.0,57,0.00,CLR,,0.00,WeatherDisplay:10.37,2013-04-10 13:06:00,
2013-04-10 07:08:00,42.6,28.8,29.93,NNE,27,0.0,0.0,58,0.00,CLR,,0.00,WeatherDisplay:10.37,2013-04-10 13:08:00,
2013-04-10 07:11:00,42.6,28.4,29.93,NNE,31,0.0,0.0,57,0.00,CLR,,0.00,WeatherDisplay:10.37,2013-04-10 13:11:00,
2013-04-10 07:13:00,42.7,28.5,29.93,NNE,32,0.0,0.0,57,0.00,CLR,,0.00,WeatherDisplay:10.37,2013-04-10 13:13:00,
2013-04-10 07:16:00,42.7,28.5,29.93,NNE,31,0.0,0.0,57,0.00,CLR,,0.00,WeatherDisplay:10.37,2013-04-10 13:16:00,
2013-04-10 07:18:00,42.7,28.5,29.93,NNE,32,0.0,0.0,57,0.00,CLR,,0.00,WeatherDisplay:10.37,2013-04-10 13:18:00,
2013-04-10 07:21:00,42.7,28.5,29.93,NNE,31,0.0,0.0,57,0.00,CLR,,0.00,WeatherDisplay:10.37,2013-04-10 13:21:00,
2013-04-10 07:22:00,42.7,28.5,29.93,NNE,31,1.1,0.0,57,0.00,CLR,,0.00,WeatherDisplay:10.37,2013-04-10 13:22:00,
2013-04-10 07:24:00,42.7,28.5,29.94,NNE,31,0.0,0.0,57,0.00,CLR,,0.00,WeatherDisplay:10.37,2013-04-10 13:24:00,
2013-04-10 07:26:00,42.7,28.5,29.94,NNE,31,0.0,0.0,57,0.00,CLR,,0.00,WeatherDisplay:10.37,2013-04-10 13:26:00,
2013-04-10 07:27:00,42.7,28.5,29.94,SE,142,0.0,0.0,57,0.00,CLR,,0.00,WeatherDisplay:10.37,2013-04-10 13:27:00,
2013-04-10 07:29:00,42.6,28.8,29.94,ENE,62,0.0,0.0,58,0.00,CLR,,0.00,WeatherDisplay:10.37,2013-04-10 13:29:00,
2013-04-10 07:31:00,42.3,29.4,29.94,SSE,156,0.0,0.0,60,0.00,CLR,,0.00,WeatherDisplay:10.37,2013-04-10 13:31:00,
2013-04-10 07:32:00,42.3,29.4,29.94,SSE,157,0.0,0.0,60,0.00,CLR,,0.00,WeatherDisplay:10.37,2013-04-10 13:32:00,
2013-04-10 07:34:00,42.2,29.3,29.94,SE,141,0.0,0.0,60,0.00,CLR,,0.00,WeatherDisplay:10.37,2013-04-10 13:34:00,
2013-04-10 07:36:00,42.2,29.3,29.94,SSE,156,0.0,0.0,60,0.00,CLR,,0.00,WeatherDisplay:10.37,2013-04-10 13:36:00,
2013-04-10 07:37:00,42.2,29.3,29.94,SSE,157,0.0,0.0,60,0.00,CLR,,0.00,WeatherDisplay:10.37,2013-04-10 13:37:00,
2013-04-10 07:39:00,42.2,29.3,29.94,SSE,156,0.0,0.0,60,0.00,CLR,,0.00,WeatherDisplay:10.37,2013-04-10 13:39:00,
2013-04-10 07:42:00,42.3,29.4,29.94,SSE,154,0.0,0.0,60,0.00,CLR,,0.00,WeatherDisplay:10.37,2013-04-10 13:42:00,
2013-04-10 07:44:00,42.3,29.4,29.94,SE,142,0.0,0.0,60,0.00,CLR,,0.00,WeatherDisplay:10.37,2013-04-10 13:44:00,
2013-04-10 07:47:00,42.3,29.4,29.95,SE,143,0.0,0.0,60,0.00,CLR,,0.00,WeatherDisplay:10.37,2013-04-10 13:47:00,
2013-04-10 07:48:00,42.3,29.4,29.95,SE,143,0.0,0.0,60,0.00,CLR,,0.00,WeatherDisplay:10.37,2013-04-10 13:48:00,
2013-04-10 07:49:00,42.3,29.4,29.95,SE,142,0.0,0.0,60,0.00,CLR,,0.00,WeatherDisplay:10.37,2013-04-10 13:49:00,
2013-04-10 07:52:00,42.2,29.3,29.95,SE,143,0.0,0.0,60,0.00,CLR,,0.00,WeatherDisplay:10.37,2013-04-10 13:52:00,
2013-04-10 07:53:00,42.2,29.3,29.95,SE,143,0.0,0.0,60,0.00,CLR,,0.00,WeatherDisplay:10.37,2013-04-10 13:53:00,
2013-04-10 07:54:00,42.2,29.7,29.95,SE,143,0.0,0.0,61,0.00,CLR,,0.00,WeatherDisplay:10.37,2013-04-10 13:54:00,
2013-04-10 07:57:00,42.3,29.8,29.95,SE,143,0.0,0.0,61,0.00,CLR,,0.00,WeatherDisplay:10.37,2013-04-10 13:57:00,
2013-04-10 07:58:00,42.3,29.8,29.95,SE,143,0.0,0.0,61,0.00,CLR,,0.00,WeatherDisplay:10.37,2013-04-10 13:58:00,
2013-04-10 08:00:00,42.3,29.8,29.95,SE,143,0.0,0.0,61,0.00,CLR,,0.00,WeatherDisplay:10.37,2013-04-10 14:00:00,
2013-04-10 08:02:00,42.3,29.8,29.95,ESE,106,1.1,1.1,61,0.00,CLR,,0.00,WeatherDisplay:10.37,2013-04-10 14:02:00,
2013-04-10 08:03:00,42.4,29.9,29.95,ESE,106,1.1,1.1,61,0.00,CLR,,0.00,WeatherDisplay:10.37,2013-04-10 14:03:00,
2013-04-10 08:05:00,42.4,29.5,29.95,ESE,105,0.0,0.0,60,0.00,CLR,,0.00,WeatherDisplay:10.37,2013-04-10 14:05:00,
2013-04-10 08:08:00,42.4,29.5,29.95,ESE,106,0.0,0.0,60,0.00,CLR,,0.00,WeatherDisplay:10.37,2013-04-10 14:08:00,
2013-04-10 08:10:00,42.5,29.6,29.95,East,96,0.0,0.0,60,0.00,CLR,,0.00,WeatherDisplay:10.37,2013-04-10 14:10:00,
2013-04-10 08:13:00,42.7,29.8,29.95,East,98,1.1,0.0,60,0.00,CLR,,0.00,WeatherDisplay:10.37,2013-04-10 14:13:00,
2013-04-10 08:15:00,43.1,30.1,29.95,East,94,0.0,0.0,60,0.00,CLR,,0.00,WeatherDisplay:10.37,2013-04-10 14:15:00,
2013-04-10 08:18:00,43.6,30.2,29.95,East,94,0.0,0.0,59,0.00,CLR,,0.00,WeatherDisplay:10.37,2013-04-10 14:18:00,
2013-04-10 08:19:00,43.6,29.8,29.95,East,94,0.0,0.0,58,0.00,CLR,,0.00,WeatherDisplay:10.37,2013-04-10 14:19:00,
2013-04-10 08:21:00,44.0,30.2,29.95,East,94,0.0,0.0,58,0.00,CLR,,0.00,WeatherDisplay:10.37,2013-04-10 14:21:00,
2013-04-10 08:23:00,44.5,30.6,29.95,East,95,0.0,0.0,58,0.00,CLR,,0.00,WeatherDisplay:10.37,2013-04-10 14:23:00,
2013-04-10 08:24:00,44.8,30.9,29.95,ESE,108,0.0,0.1,58,0.00,CLR,,0.00,WeatherDisplay:10.37,2013-04-10 14:24:00,
2013-04-10 08:26:00,45.2,30.4,29.95,SE,128,0.0,0.0,56,0.00,CLR,,0.00,WeatherDisplay:10.37,2013-04-10 14:26:00,
2013-04-10 08:28:00,45.7,30.4,29.95,SE,128,0.0,0.1,55,0.00,CLR,,0.00,WeatherDisplay:10.37,2013-04-10 14:28:00,
2013-04-10 08:29:00,45.8,30.5,29.95,SE,129,1.1,1.1,55,0.00,CLR,,0.00,WeatherDisplay:10.37,2013-04-10 14:29:00,
2013-04-10 08:31:00,46.3,30.1,29.95,SE,128,1.1,1.1,53,0.00,CLR,,0.00,WeatherDisplay:10.37,2013-04-10 14:31:00,
2013-04-10 08:33:00,46.8,30.1,29.95,SE,128,1.1,1.1,52,0.00,CLR,,0.00,WeatherDisplay:10.37,2013-04-10 14:33:00,
2013-04-10 08:34:00,46.9,29.7,29.95,SE,128,1.1,1.1,51,0.00,CLR,,0.00,WeatherDisplay:10.37,2013-04-10 14:34:00,
2013-04-10 08:36:00,47.1,29.9,29.95,SSE,162,1.1,1.1,51,0.00,CLR,,0.00,WeatherDisplay:10.37,2013-04-10 14:36:00,
2013-04-10 08:38:00,47.6,29.9,29.95,SE,129,1.1,0.0,50,0.00,CLR,,0.00,WeatherDisplay:10.37,2013-04-10 14:38:00,
2013-04-10 08:39:00,47.6,29.9,29.95,SE,129,1.1,0.0,50,0.00,CLR,,0.00,WeatherDisplay:10.37,2013-04-10 14:39:00,
2013-04-10 08:41:00,48.4,30.1,29.96,SE,129,0.0,0.0,49,0.00,CLR,,0.00,WeatherDisplay:10.37,2013-04-10 14:41:00,
2013-04-10 08:43:00,49.0,30.1,29.96,ENE,73,1.1,0.0,48,0.00,CLR,,0.00,WeatherDisplay:10.37,2013-04-10 14:43:00,
2013-04-10 08:44:00,49.0,30.1,29.96,ENE,74,1.1,0.0,48,0.00,CLR,,0.00,WeatherDisplay:10.37,2013-04-10 14:44:00,
2013-04-10 08:46:00,49.5,30.1,29.95,SSE,163,2.3,2.3,47,0.00,CLR,,0.00,WeatherDisplay:10.37,2013-04-10 14:46:00,
2013-04-10 08:49:00,49.9,29.9,29.95,SE,142,0.0,0.0,46,0.00,CLR,,0.00,WeatherDisplay:10.37,2013-04-10 14:49:00,
2013-04-10 08:51:00,50.5,29.9,29.96,WSW,240,0.0,0.0,45,0.00,CLR,,0.00,WeatherDisplay:10.37,2013-04-10 14:51:00,
2013-04-10 08:54:00,50.6,29.5,29.96,WNW,300,2.3,2.3,44,0.00,CLR,,0.00,WeatherDisplay:10.37,2013-04-10 14:54:00,
2013-04-10 08:57:00,50.2,29.1,29.96,West,266,0.0,0.0,44,0.00,CLR,,0.00,WeatherDisplay:10.37,2013-04-10 14:57:00,
2013-04-10 08:59:00,50.0,28.9,29.96,WSW,257,1.0,3.0,44,0.00,CLR,,0.00,WeatherDisplay:10.37,2013-04-10 14:59:00,
2013-04-10 09:02:00,49.8,29.3,29.96,SW,217,1.1,0.0,45,0.00,CLR,,0.00,WeatherDisplay:10.37,2013-04-10 15:02:00,
2013-04-10 09:04:00,49.8,29.3,29.96,West,259,0.0,2.0,45,0.00,CLR,,0.00,WeatherDisplay:10.37,2013-04-10 15:04:00,
2013-04-10 09:07:00,49.8,29.3,29.96,NE,42,1.1,0.0,45,0.00,CLR,,0.00,WeatherDisplay:10.37,2013-04-10 15:07:00,
2013-04-10 09:09:00,49.9,29.4,29.96,South,177,1.1,0.0,45,0.00,CLR,,0.00,WeatherDisplay:10.37,2013-04-10 15:09:00,
2013-04-10 09:12:00,50.2,29.7,29.96,SW,228,4.0,4.0,45,0.00,CLR,,0.00,WeatherDisplay:10.37,2013-04-10 15:12:00,
2013-04-10 09:14:00,50.2,29.7,29.96,SW,220,3.4,3.4,45,0.00,CLR,,0.00,WeatherDisplay:10.37,2013-04-10 15:14:00,
2013-04-10 09:17:00,50.6,29.5,29.96,South,170,3.4,3.4,44,0.00,CLR,,0.00,WeatherDisplay:10.37,2013-04-10 15:17:00,
2013-04-10 09:19:00,50.8,29.6,29.96,SW,221,2.0,2.0,44,0.00,CLR,,0.00,WeatherDisplay:10.37,2013-04-10 15:19:00,
2013-04-10 09:23:00,51.3,29.5,29.96,SSE,165,3.4,3.4,43,0.00,CLR,,0.00,WeatherDisplay:10.37,2013-04-10 15:23:00,
2013-04-10 09:24:00,51.5,29.7,29.96,South,186,3.4,3.4,43,0.00,CLR,,0.00,WeatherDisplay:10.37,2013-04-10 15:24:00,
2013-04-10 09:25:00,51.5,29.7,29.97,South,190,4.0,4.0,43,0.00,CLR,,0.00,WeatherDisplay:10.37,2013-04-10 15:25:00,
2013-04-10 09:28:00,51.4,29.1,29.96,SE,128,2.3,2.3,42,0.00,CLR,,0.00,WeatherDisplay:10.37,2013-04-10 15:28:00,
2013-04-10 09:29:00,51.5,29.1,29.96,ESE,111,1.1,1.1,42,0.00,CLR,,0.00,WeatherDisplay:10.37,2013-04-10 15:29:00,
2013-04-10 09:30:00,51.5,29.1,29.96,SSW,201,2.3,2.3,42,0.00,CLR,,0.00,WeatherDisplay:10.37,2013-04-10 15:30:00,
2013-04-10 09:33:00,51.4,29.1,29.97,SSW,194,4.0,4.0,42,0.00,CLR,,0.00,WeatherDisplay:10.37,2013-04-10 15:33:00,
2013-04-10 09:34:00,51.3,29.0,29.96,SSW,200,4.6,4.6,42,0.00,CLR,,0.00,WeatherDisplay:10.37,2013-04-10 15:34:00,
2013-04-10 09:35:00,51.2,28.9,29.96,SW,232,3.4,3.4,42,0.00,CLR,,0.00,WeatherDisplay:10.37,2013-04-10 15:35:00,
2013-04-10 09:38:00,50.9,29.2,29.96,SW,225,2.3,2.3,43,0.00,CLR,,0.00,WeatherDisplay:10.37,2013-04-10 15:38:00,
2013-04-10 09:39:00,51.0,29.3,29.96,WNW,297,2.3,2.3,43,0.00,CLR,,0.00,WeatherDisplay:10.37,2013-04-10 15:39:00,
2013-04-10 09:40:00,51.1,29.4,29.96,West,260,2.3,2.3,43,0.00,CLR,,0.00,WeatherDisplay:10.37,2013-04-10 15:40:00,
2013-04-10 09:44:00,51.7,29.4,29.96,SW,220,1.0,3.0,42,0.00,CLR,,0.00,WeatherDisplay:10.37,2013-04-10 15:44:00,
2013-04-10 09:45:00,52.2,29.8,29.96,WSW,239,1.1,0.0,42,0.00,CLR,,0.00,WeatherDisplay:10.37,2013-04-10 15:45:00,
2013-04-10 09:46:00,52.3,29.3,29.96,SSW,205,3.4,3.4,41,0.00,CLR,,0.00,WeatherDisplay:10.37,2013-04-10 15:46:00,
2013-04-10 09:49:00,52.6,29.5,29.96,SW,226,3.4,3.4,41,0.00,CLR,,0.00,WeatherDisplay:10.37,2013-04-10 15:49:00,
2013-04-10 09:50:00,52.6,29.5,29.96,WSW,257,1.1,1.1,41,0.00,CLR,,0.00,WeatherDisplay:10.37,2013-04-10 15:50:00,
2013-04-10 09:51:00,52.2,29.2,29.96,ESE,122,2.3,2.3,41,0.00,CLR,,0.00,WeatherDisplay:10.37,2013-04-10 15:51:00,
2013-04-10 09:54:00,52.3,29.3,29.96,SW,228,2.3,2.3,41,0.00,CLR,,0.00,WeatherDisplay:10.37,2013-04-10 15:54:00,
2013-04-10 09:55:00,52.3,29.9,29.96,SW,221,3.4,3.4,42,0.00,CLR,,0.00,WeatherDisplay:10.37,2013-04-10 15:55:00,
2013-04-10 09:56:00,52.3,29.9,29.96,SW,226,3.4,3.4,42,0.00,CLR,,0.00,WeatherDisplay:10.37,2013-04-10 15:56:00,
2013-04-10 09:59:00,52.2,29.8,29.96,WNW,288,3.4,3.4,42,0.00,CLR,,0.00,WeatherDisplay:10.37,2013-04-10 15:59:00,
2013-04-10 10:00:00,52.2,29.8,29.96,ENE,78,1.1,1.1,42,0.00,CLR,,0.00,WeatherDisplay:10.37,2013-04-10 16:00:00,
2013-04-10 10:01:00,52.2,29.8,29.96,SSW,205,1.1,1.1,42,0.00,CLR,,0.00,WeatherDisplay:10.37,2013-04-10 16:01:00,
2013-04-10 10:05:00,52.4,30.0,29.96,SSE,152,3.4,3.4,42,0.00,CLR,,0.00,WeatherDisplay:10.37,2013-04-10 16:05:00,
2013-04-10 10:06:00,52.6,30.1,29.96,WSW,249,2.3,2.3,42,0.00,CLR,,0.00,WeatherDisplay:10.37,2013-04-10 16:06:00,
2013-04-10 10:07:00,52.8,29.7,29.96,ENE,70,2.3,2.3,41,0.00,CLR,,0.00,WeatherDisplay:10.37,2013-04-10 16:07:00,
2013-04-10 10:10:00,53.0,29.9,29.96,NW,309,1.1,1.1,41,0.00,CLR,,0.00,WeatherDisplay:10.37,2013-04-10 16:10:00,
2013-04-10 10:11:00,53.0,29.3,29.96,NNW,341,2.3,2.3,40,0.00,CLR,,0.00,WeatherDisplay:10.37,2013-04-10 16:11:00,
2013-04-10 10:12:00,53.1,29.4,29.96,East,91,2.3,2.3,40,0.00,CLR,,0.00,WeatherDisplay:10.37,2013-04-10 16:12:00,
2013-04-10 10:15:00,53.6,30.4,29.95,SSW,205,2.3,2.3,41,0.00,CLR,,0.00,WeatherDisplay:10.37,2013-04-10 16:15:00,
2013-04-10 10:16:00,53.8,30.0,29.95,South,190,3.4,3.4,40,0.00,CLR,,0.00,WeatherDisplay:10.37,2013-04-10 16:16:00,
2013-04-10 10:17:00,53.9,30.1,29.95,SSW,193,3.4,3.4,40,0.00,CLR,,0.00,WeatherDisplay:10.37,2013-04-10 16:17:00,
2013-04-10 10:20:00,54.3,30.5,29.95,SE,128,4.6,4.6,40,0.00,CLR,,0.00,WeatherDisplay:10.37,2013-04-10 16:20:00,
2013-04-10 10:21:00,54.3,30.5,29.95,ENE,66,3.4,3.4,40,0.00,CLR,,0.00,WeatherDisplay:10.37,2013-04-10 16:21:00,
2013-04-10 10:22:00,54.1,30.9,29.95,SE,126,3.4,3.4,41,0.00,CLR,,0.00,WeatherDisplay:10.37,2013-04-10 16:22:00,
2013-04-10 10:25:00,54.0,30.2,29.95,East,85,2.3,2.3,40,0.00,CLR,,0.00,WeatherDisplay:10.37,2013-04-10 16:25:00,
2013-04-10 10:26:00,54.2,30.4,29.95,ESE,112,1.1,1.1,40,0.00,CLR,,0.00,WeatherDisplay:10.37,2013-04-10 16:26:00,
2013-04-10 10:27:00,54.5,30.6,29.95,WNW,297,1.1,1.1,40,0.00,CLR,,0.00,WeatherDisplay:10.37,2013-04-10 16:27:00,
2013-04-10 10:30:00,54.9,30.4,29.95,East,82,2.3,2.3,39,0.00,CLR,,0.00,WeatherDisplay:10.37,2013-04-10 16:30:00,
2013-04-10 10:31:00,55.1,30.6,29.95,West,280,1.1,1.1,39,0.00,CLR,,0.00,WeatherDisplay:10.37,2013-04-10 16:31:00,
2013-04-10 10:32:00,55.2,30.0,29.95,SE,125,1.1,1.1,38,0.00,CLR,,0.00,WeatherDisplay:10.37,2013-04-10 16:32:00,
2013-04-10 10:35:00,55.7,29.8,29.95,SSW,211,6.9,6.9,37,0.00,CLR,,0.00,WeatherDisplay:10.37,2013-04-10 16:35:00,
2013-04-10 10:36:00,55.8,29.2,29.95,WNW,290,6.9,6.9,36,0.00,CLR,,0.00,WeatherDisplay:10.37,2013-04-10 16:36:00,
2013-04-10 10:37:00,55.6,29.0,29.95,WNW,285,4.6,4.6,36,0.00,CLR,,0.00,WeatherDisplay:10.37,2013-04-10 16:37:00,
2013-04-10 10:40:00,54.9,28.4,29.95,WNW,292,3.4,3.4,36,0.00,CLR,,0.00,WeatherDisplay:10.37,2013-04-10 16:40:00,
2013-04-10 10:41:00,54.9,28.4,29.95,WNW,293,3.4,3.4,36,0.00,CLR,,0.00,WeatherDisplay:10.37,2013-04-10 16:41:00,
2013-04-10 10:42:00,54.8,28.3,29.95,NW,307,3.4,0.0,36,0.00,CLR,,0.00,WeatherDisplay:10.37,2013-04-10 16:42:00,
2013-04-10 10:43:00,54.8,28.3,29.95,NW,307,0.0,0.0,36,0.00,CLR,,0.00,WeatherDisplay:10.37,2013-04-10 16:43:00,
2013-04-10 10:46:00,55.7,29.1,29.95,ESE,115,3.4,3.4,36,0.00,CLR,,0.00,WeatherDisplay:10.37,2013-04-10 16:46:00,
2013-04-10 10:47:00,55.9,29.3,29.95,South,188,3.4,3.4,36,0.00,CLR,,0.00,WeatherDisplay:10.37,2013-04-10 16:47:00,
2013-04-10 10:48:00,56.0,28.7,29.95,SW,231,4.6,4.6,35,0.00,CLR,,0.00,WeatherDisplay:10.37,2013-04-10 16:48:00,
2013-04-10 10:51:00,56.1,27.4,29.95,NW,325,4.6,4.6,33,0.00,CLR,,0.00,WeatherDisplay:10.37,2013-04-10 16:51:00,
2013-04-10 10:52:00,56.1,27.4,29.95,NNE,12,2.3,2.3,33,0.00,CLR,,0.00,WeatherDisplay:10.37,2013-04-10 16:52:00,
2013-04-10 10:53:00,56.0,27.3,29.95,WNW,302,4.0,4.0,33,0.00,CLR,,0.00,WeatherDisplay:10.37,2013-04-10 16:53:00,
2013-04-10 10:56:00,55.4,28.2,29.95,WNW,297,1.1,1.1,35,0.00,CLR,,0.00,WeatherDisplay:10.37,2013-04-10 16:56:00,
2013-04-10 10:57:00,55.4,28.2,29.95,NE,44,3.0,3.0,35,0.00,CLR,,0.00,WeatherDisplay:10.37,2013-04-10 16:57:00,
2013-04-10 10:58:00,55.3,28.1,29.95,SE,135,3.4,3.4,35,0.00,CLR,,0.00,WeatherDisplay:10.37,2013-04-10 16:58:00,
2013-04-10 11:01:00,55.5,28.3,29.95,SE,145,3.4,3.4,35,0.00,CLR,,0.00,WeatherDisplay:10.37,2013-04-10 17:01:00,
2013-04-10 11:02:00,55.6,28.4,29.95,WSW,255,2.3,2.3,35,0.00,CLR,,0.00,WeatherDisplay:10.37,2013-04-10 17:02:00,
2013-04-10 11:03:00,56.0,28.0,29.95,WNW,285,3.4,3.4,34,0.00,CLR,,0.00,WeatherDisplay:10.37,2013-04-10 17:03:00,
2013-04-10 11:06:00,56.1,28.1,29.95,ENE,71,3.4,3.4,34,0.00,CLR,,0.00,WeatherDisplay:10.37,2013-04-10 17:06:00,
2013-04-10 11:07:00,56.1,28.1,29.94,ENE,72,2.3,2.3,34,0.00,CLR,,0.00,WeatherDisplay:10.37,2013-04-10 17:07:00,
2013-04-10 11:08:00,56.3,27.5,29.94,SE,139,5.0,5.0,33,0.00,CLR,,0.00,WeatherDisplay:10.37,2013-04-10 17:08:00,
2013-04-10 11:11:00,56.7,27.9,29.94,SW,231,6.9,6.9,33,0.00,CLR,,0.00,WeatherDisplay:10.37,2013-04-10 17:11:00,
2013-04-10 11:12:00,56.8,27.2,29.94,SSW,201,4.6,4.6,32,0.00,CLR,,0.00,WeatherDisplay:10.37,2013-04-10 17:12:00,
2013-04-10 11:13:00,57.0,27.4,29.94,WSW,252,2.3,2.3,32,0.00,CLR,,0.00,WeatherDisplay:10.37,2013-04-10 17:13:00,
2013-04-10 11:14:00,57.1,27.5,29.94,NNE,19,2.3,2.3,32,0.00,CLR,,0.00,WeatherDisplay:10.37,2013-04-10 17:14:00,
2013-04-10 11:16:00,57.5,27.1,29.94,SSE,160,3.4,3.4,31,0.00,CLR,,0.00,WeatherDisplay:10.37,2013-04-10 17:16:00,
2013-04-10 11:17:00,57.5,27.1,29.94,SE,131,3.4,3.4,31,0.00,CLR,,0.00,WeatherDisplay:10.37,2013-04-10 17:17:00,
2013-04-10 11:18:00,57.5,27.1,29.94,SSW,204,3.4,3.4,31,0.00,CLR,,0.00,WeatherDisplay:10.37,2013-04-10 17:18:00,
2013-04-10 11:19:00,57.6,27.9,29.94,SSE,157,3.4,3.4,32,0.00,CLR,,0.00,WeatherDisplay:10.37,2013-04-10 17:19:00,
2013-04-10 11:22:00,58.2,27.7,29.94,SW,222,3.0,3.0,31,0.00,CLR,,0.00,WeatherDisplay:10.37,2013-04-10 17:22:00,
2013-04-10 11:23:00,58.3,27.8,29.94,SSW,209,3.4,3.4,31,0.00,CLR,,0.00,WeatherDisplay:10.37,2013-04-10 17:23:00,
2013-04-10 11:24:00,58.3,27.8,29.94,WSW,246,3.4,3.4,31,0.00,CLR,,0.00,WeatherDisplay:10.37,2013-04-10 17:24:00,
2013-04-10 11:27:00,57.8,27.3,29.94,West,273,3.4,3.4,31,0.00,CLR,,0.00,WeatherDisplay:10.37,2013-04-10 17:27:00,
2013-04-10 11:29:00,57.8,27.3,29.93,West,274,3.4,3.4,31,0.00,CLR,,0.00,WeatherDisplay:10.37,2013-04-10 17:29:00,
2013-04-10 11:32:00,56.7,25.6,29.93,NW,319,4.6,4.6,30,0.00,CLR,,0.00,WeatherDisplay:10.37,2013-04-10 17:32:00,
2013-04-10 11:34:00,56.4,25.3,29.93,NNE,16,3.4,3.4,30,0.00,CLR,,0.00,WeatherDisplay:10.37,2013-04-10 17:34:00,
2013-04-10 11:37:00,56.6,25.5,29.93,WNW,295,3.4,3.4,30,0.00,CLR,,0.00,WeatherDisplay:10.37,2013-04-10 17:37:00,
2013-04-10 11:38:00,56.6,25.5,29.93,West,267,2.3,2.3,30,0.00,CLR,,0.00,WeatherDisplay:10.37,2013-04-10 17:38:00,
2013-04-10 11:39:00,56.8,25.7,29.93,WSW,249,10.3,10.3,30,0.00,CLR,,0.00,WeatherDisplay:10.37,2013-04-10 17:39:00,
2013-04-10 11:43:00,57.4,25.4,29.93,SSW,198,6.9,6.9,29,0.00,CLR,,0.00,WeatherDisplay:10.37,2013-04-10 17:43:00,
2013-04-10 11:44:00,57.9,25.8,29.93,South,184,6.9,6.9,29,0.00,CLR,,0.00,WeatherDisplay:10.37,2013-04-10 17:44:00,
2013-04-10 11:45:00,57.9,25.8,29.93,WNW,295,6.9,6.9,29,0.00,CLR,,0.00,WeatherDisplay:10.37,2013-04-10 17:45:00,
2013-04-10 11:48:00,57.6,25.5,29.93,NW,317,4.6,4.6,29,0.00,CLR,,0.00,WeatherDisplay:10.37,2013-04-10 17:48:00,
2013-04-10 11:50:00,57.5,26.3,29.93,SSE,155,2.3,2.3,30,0.00,CLR,,0.00,WeatherDisplay:10.37,2013-04-10 17:50:00,
2013-04-10 11:53:00,58.7,25.6,29.93,WNW,284,4.0,4.0,28,0.00,CLR,,0.00,WeatherDisplay:10.37,2013-04-10 17:53:00,
2013-04-10 11:55:00,59.0,25.9,29.93,SSW,211,6.9,6.9,28,0.00,CLR,,0.00,WeatherDisplay:10.37,2013-04-10 17:55:00,
2013-04-10 11:58:00,58.9,25.8,29.93,WNW,288,6.9,6.9,28,0.00,CLR,,0.00,WeatherDisplay:10.37,2013-04-10 17:58:00,
2013-04-10 12:00:00,59.0,25.9,29.93,SW,225,8.0,8.0,28,0.00,CLR,,0.00,WeatherDisplay:10.37,2013-04-10 18:00:00,
2013-04-10 12:03:00,59.4,26.2,29.93,SW,231,6.9,6.9,28,0.00,CLR,,0.00,WeatherDisplay:10.37,2013-04-10 18:03:00,
2013-04-10 12:05:00,59.9,25.8,29.92,West,277,6.0,6.0,27,0.00,CLR,,0.00,WeatherDisplay:10.37,2013-04-10 18:05:00,
2013-04-10 12:08:00,60.3,24.3,29.93,WSW,242,9.2,9.2,25,0.00,CLR,,0.00,WeatherDisplay:10.37,2013-04-10 18:08:00,
2013-04-10 12:10:00,59.9,24.9,29.92,NW,314,3.4,3.4,26,0.00,CLR,,0.00,WeatherDisplay:10.37,2013-04-10 18:10:00,
2013-04-10 12:13:00,59.2,23.4,29.92,WNW,287,6.9,6.9,25,0.00,CLR,,0.00,WeatherDisplay:10.37,2013-04-10 18:13:00,
2013-04-10 12:14:00,59.1,24.2,29.92,WNW,295,4.6,4.6,26,0.00,CLR,,0.00,WeatherDisplay:10.37,2013-04-10 18:14:00,
2013-04-10 12:15:00,59.1,24.2,29.92,WNW,292,6.9,6.9,26,0.00,CLR,,0.00,WeatherDisplay:10.37,2013-04-10 18:15:00,
2013-04-10 12:18:00,59.3,24.4,29.92,SSW,205,4.6,4.6,26,0.00,CLR,,0.00,WeatherDisplay:10.37,2013-04-10 18:18:00,
2013-04-10 12:19:00,59.5,25.5,29.92,West,262,4.6,4.6,27,0.00,CLR,,0.00,WeatherDisplay:10.37,2013-04-10 18:19:00,
2013-04-10 12:20:00,59.9,24.9,29.92,SW,225,6.0,6.0,26,0.00,CLR,,0.00,WeatherDisplay:10.37,2013-04-10 18:20:00,
2013-04-10 12:21:00,59.9,24.9,29.92,South,190,4.6,4.6,26,0.00,CLR,,0.00,WeatherDisplay:10.37,2013-04-10 18:21:00,
2013-04-10 12:23:00,60.3,24.3,29.92,SW,215,13.8,13.8,25,0.00,CLR,,0.00,WeatherDisplay:10.37,2013-04-10 18:23:00,
2013-04-10 12:25:00,59.8,23.9,29.92,SSW,203,14.9,14.9,25,0.00,CLR,,0.00,WeatherDisplay:10.37,2013-04-10 18:25:00,
2013-04-10 12:26:00,59.6,23.7,29.92,South,169,11.5,11.5,25,0.00,CLR,,0.00,WeatherDisplay:10.37,2013-04-10 18:26:00,
2013-04-10 12:29:00,59.6,23.7,29.92,WSW,258,3.4,3.4,25,0.00,CLR,,0.00,WeatherDisplay:10.37,2013-04-10 18:29:00,
2013-04-10 12:30:00,59.7,23.8,29.92,WSW,257,3.4,3.4,25,0.00,CLR,,0.00,WeatherDisplay:10.37,2013-04-10 18:30:00,
2013-04-10 12:31:00,59.7,23.8,29.92,WSW,255,3.4,3.4,25,0.00,CLR,,0.00,WeatherDisplay:10.37,2013-04-10 18:31:00,
2013-04-10 12:34:00,59.7,23.8,29.92,SW,219,4.6,4.6,25,0.00,CLR,,0.00,WeatherDisplay:10.37,2013-04-10 18:34:00,
2013-04-10 12:35:00,59.8,23.9,29.92,West,278,4.6,4.6,25,0.00,CLR,,0.00,WeatherDisplay:10.37,2013-04-10 18:35:00,
2013-04-10 12:36:00,59.8,23.9,29.92,WSW,252,9.2,9.2,25,0.00,CLR,,0.00,WeatherDisplay:10.37,2013-04-10 18:36:00,
2013-04-10 12:39:00,59.6,22.7,29.92,WSW,252,9.2,9.2,24,0.00,CLR,,0.00,WeatherDisplay:10.37,2013-04-10 18:39:00,
2013-04-10 12:40:00,59.8,22.9,29.92,SSW,207,6.0,6.0,24,0.00,CLR,,0.00,WeatherDisplay:10.37,2013-04-10 18:40:00,
2013-04-10 12:41:00,59.9,23.0,29.92,WSW,238,5.8,5.8,24,0.00,CLR,,0.00,WeatherDisplay:10.37,2013-04-10 18:41:00,
2013-04-10 12:44:00,59.6,22.7,29.92,WSW,249,3.4,3.4,24,0.00,CLR,,0.00,WeatherDisplay:10.37,2013-04-10 18:44:00,
2013-04-10 12:45:00,59.8,23.9,29.92,West,260,11.5,11.5,25,0.00,CLR,,0.00,WeatherDisplay:10.37,2013-04-10 18:45:00,
2013-04-10 12:46:00,59.9,22.0,29.91,SSW,201,7.0,8.4,23,0.00,CLR,,0.00,WeatherDisplay:10.37,2013-04-10 18:46:00,
2013-04-10 12:50:00,60.0,22.0,29.92,West,273,10.3,10.3,23,0.00,CLR,,0.00,WeatherDisplay:10.37,2013-04-10 18:50:00,
2013-04-10 12:51:00,60.1,22.1,29.92,SW,222,10.0,10.0,23,0.00,CLR,,0.00,WeatherDisplay:10.37,2013-04-10 18:51:00,
2013-04-10 12:52:00,60.1,22.1,29.92,WSW,251,9.0,9.0,23,0.00,CLR,,0.00,WeatherDisplay:10.37,2013-04-10 18:52:00,
2013-04-10 12:55:00,59.9,22.0,29.91,WSW,239,5.8,5.8,23,0.00,CLR,,0.00,WeatherDisplay:10.37,2013-04-10 18:55:00,
2013-04-10 12:57:00,60.0,22.0,29.91,SW,235,10.0,10.0,23,0.00,CLR,,0.00,WeatherDisplay:10.37,2013-04-10 18:57:00,
2013-04-10 13:00:00,60.5,21.4,29.91,SSW,204,10.3,10.3,22,0.00,CLR,,0.00,WeatherDisplay:10.37,2013-04-10 19:00:00,
2013-04-10 13:02:00,60.4,22.4,29.91,WSW,252,11.5,11.5,23,0.00,CLR,,0.00,WeatherDisplay:10.37,2013-04-10 19:02:00,
2013-04-10 13:05:00,61.2,22.0,29.91,South,174,14.9,14.9,22,0.00,CLR,,0.00,WeatherDisplay:10.37,2013-04-10 19:05:00,
2013-04-10 13:07:00,61.1,21.9,29.91,South,184,11.5,11.5,22,0.00,CLR,,0.00,WeatherDisplay:10.37,2013-04-10 19:07:00,
2013-04-10 13:10:00,61.2,23.1,29.91,WNW,284,11.5,11.5,23,0.00,CLR,,0.00,WeatherDisplay:10.37,2013-04-10 19:10:00,
2013-04-10 13:12:00,61.1,21.9,29.91,WNW,283,10.3,10.3,22,0.00,CLR,,0.00,WeatherDisplay:10.37,2013-04-10 19:12:00,
2013-04-10 13:15:00,60.7,22.6,29.90,WSW,249,9.2,9.2,23,0.00,CLR,,0.00,WeatherDisplay:10.37,2013-04-10 19:15:00,
2013-04-10 13:17:00,60.8,22.7,29.90,SE,145,9.2,9.2,23,0.00,CLR,,0.00,WeatherDisplay:10.37,2013-04-10 19:17:00,
2013-04-10 13:20:00,61.4,22.2,29.90,SSW,212,7.0,7.0,22,0.00,CLR,,0.00,WeatherDisplay:10.37,2013-04-10 19:20:00,
2013-04-10 13:22:00,61.2,22.0,29.90,SW,222,13.8,13.8,22,0.00,CLR,,0.00,WeatherDisplay:10.37,2013-04-10 19:22:00,
2013-04-10 13:25:00,60.7,21.6,29.90,West,270,11.5,11.5,22,0.00,CLR,,0.00,WeatherDisplay:10.37,2013-04-10 19:25:00,
2013-04-10 13:27:00,60.9,21.8,29.90,SW,224,9.2,9.2,22,0.00,CLR,,0.00,WeatherDisplay:10.37,2013-04-10 19:27:00,
2013-04-10 13:28:00,61.0,21.8,29.90,SSW,195,10.0,10.0,22,0.00,CLR,,0.00,WeatherDisplay:10.37,2013-04-10 19:28:00,
2013-04-10 13:30:00,61.3,22.1,29.90,WNW,300,11.5,11.5,22,0.00,CLR,,0.00,WeatherDisplay:10.37,2013-04-10 19:30:00,
2013-04-10 13:32:00,61.3,22.1,29.90,SSW,198,11.5,11.5,22,0.00,CLR,,0.00,WeatherDisplay:10.37,2013-04-10 19:32:00,
2013-04-10 13:33:00,61.3,22.1,29.90,SW,227,11.5,11.5,22,0.00,CLR,,0.00,WeatherDisplay:10.37,2013-04-10 19:33:00,
2013-04-10 13:36:00,61.1,23.0,29.90,SW,236,8.1,8.1,23,0.00,CLR,,0.00,WeatherDisplay:10.37,2013-04-10 19:36:00,
2013-04-10 13:37:00,61.3,23.1,29.90,WNW,287,8.1,8.1,23,0.00,CLR,,0.00,WeatherDisplay:10.37,2013-04-10 19:37:00,
2013-04-10 13:38:00,61.2,22.0,29.90,NW,313,6.9,6.9,22,0.00,CLR,,0.00,WeatherDisplay:10.37,2013-04-10 19:38:00,
2013-04-10 13:39:00,61.2,22.0,29.89,WSW,257,6.9,6.9,22,0.00,CLR,,0.00,WeatherDisplay:10.37,2013-04-10 19:39:00,
2013-04-10 13:41:00,60.9,21.8,29.89,WSW,248,3.4,3.4,22,0.00,CLR,,0.00,WeatherDisplay:10.37,2013-04-10 19:41:00,
2013-04-10 13:42:00,60.9,22.8,29.89,SW,226,14.0,14.0,23,0.00,CLR,,0.00,WeatherDisplay:10.37,2013-04-10 19:42:00,
2013-04-10 13:43:00,60.9,22.8,29.89,SW,235,14.9,14.9,23,0.00,CLR,,0.00,WeatherDisplay:10.37,2013-04-10 19:43:00,
2013-04-10 13:44:00,60.9,22.8,29.89,WSW,253,8.0,18.0,23,0.00,CLR,,0.00,WeatherDisplay:10.37,2013-04-10 19:44:00,
2013-04-10 13:46:00,61.1,23.0,29.89,WSW,238,11.5,11.5,23,0.00,CLR,,0.00,WeatherDisplay:10.37,2013-04-10 19:46:00,
2013-04-10 13:47:00,61.2,23.1,29.90,WSW,258,11.5,11.5,23,0.00,CLR,,0.00,WeatherDisplay:10.37,2013-04-10 19:47:00,
2013-04-10 13:48:00,61.2,22.0,29.89,SW,222,10.3,10.3,22,0.00,CLR,,0.00,WeatherDisplay:10.37,2013-04-10 19:48:00,
2013-04-10 13:49:00,61.1,21.9,29.89,South,184,10.3,10.3,22,0.00,CLR,,0.00,WeatherDisplay:10.37,2013-04-10 19:49:00,
2013-04-10 13:51:00,61.0,22.9,29.89,NW,320,9.2,9.2,23,0.00,CLR,,0.00,WeatherDisplay:10.37,2013-04-10 19:51:00,
2013-04-10 13:53:00,60.7,22.6,29.89,WNW,289,9.2,9.2,23,0.00,CLR,,0.00,WeatherDisplay:10.37,2013-04-10 19:53:00,
2013-04-10 13:54:00,60.5,22.5,29.89,West,274,8.1,8.1,23,0.00,CLR,,0.00,WeatherDisplay:10.37,2013-04-10 19:54:00,
2013-04-10 13:57:00,61.0,23.9,29.89,WSW,239,9.0,9.0,24,0.00,CLR,,0.00,WeatherDisplay:10.37,2013-04-10 19:57:00,
2013-04-10 13:58:00,61.4,23.2,29.89,SW,231,10.3,10.3,23,0.00,CLR,,0.00,WeatherDisplay:10.37,2013-04-10 19:58:00,
2013-04-10 13:59:00,61.7,22.4,29.89,WNW,288,16.1,16.1,22,0.00,CLR,,0.00,WeatherDisplay:10.37,2013-04-10 19:59:00,
2013-04-10 14:02:00,62.0,22.7,29.89,WSW,239,10.3,10.3,22,0.00,CLR,,0.00,WeatherDisplay:10.37,2013-04-10 20:02:00,
2013-04-10 14:03:00,62.0,22.7,29.89,NW,305,10.3,10.3,22,0.00,CLR,,0.00,WeatherDisplay:10.37,2013-04-10 20:03:00,
2013-04-10 14:04:00,61.9,22.6,29.89,West,265,10.3,10.3,22,0.00,CLR,,0.00,WeatherDisplay:10.37,2013-04-10 20:04:00,
2013-04-10 14:07:00,61.9,22.6,29.88,WNW,300,10.3,10.3,22,0.00,CLR,,0.00,WeatherDisplay:10.37,2013-04-10 20:07:00,
2013-04-10 14:08:00,62.0,22.7,29.88,WNW,288,6.9,6.9,22,0.00,CLR,,0.00,WeatherDisplay:10.37,2013-04-10 20:08:00,
2013-04-10 14:09:00,61.8,22.5,29.88,WSW,239,8.1,8.1,22,0.00,CLR,,0.00,WeatherDisplay:10.37,2013-04-10 20:09:00,
2013-04-10 14:12:00,62.4,23.0,29.88,WSW,241,5.8,5.8,22,0.00,CLR,,0.00,WeatherDisplay:10.37,2013-04-10 20:12:00,
2013-04-10 14:13:00,62.6,23.2,29.88,West,276,6.0,6.0,22,0.00,CLR,,0.00,WeatherDisplay:10.37,2013-04-10 20:13:00,
2013-04-10 14:14:00,62.8,22.2,29.88,NW,309,6.9,6.9,21,0.00,CLR,,0.00,WeatherDisplay:10.37,2013-04-10 20:14:00,
2013-04-10 14:17:00,62.9,22.3,29.88,NW,305,8.1,8.1,21,0.00,CLR,,0.00,WeatherDisplay:10.37,2013-04-10 20:17:00,
2013-04-10 14:18:00,62.9,22.3,29.88,WNW,283,9.2,9.2,21,0.00,CLR,,0.00,WeatherDisplay:10.37,2013-04-10 20:18:00,
2013-04-10 14:19:00,62.8,22.2,29.88,WNW,293,9.2,9.2,21,0.00,CLR,,0.00,WeatherDisplay:10.37,2013-04-10 20:19:00,
2013-04-10 14:22:00,62.4,20.8,29.88,SW,234,6.9,6.9,20,0.00,CLR,,0.00,WeatherDisplay:10.37,2013-04-10 20:22:00,
2013-04-10 14:23:00,62.5,20.8,29.88,SSE,148,7.0,7.0,20,0.00,CLR,,0.00,WeatherDisplay:10.37,2013-04-10 20:23:00,
2013-04-10 14:24:00,62.5,20.8,29.88,SSW,205,11.5,11.5,20,0.00,CLR,,0.00,WeatherDisplay:10.37,2013-04-10 20:24:00,
2013-04-10 14:27:00,62.3,19.5,29.88,West,273,16.1,16.1,19,0.00,CLR,,0.00,WeatherDisplay:10.37,2013-04-10 20:27:00,
2013-04-10 14:28:00,62.4,19.5,29.88,WNW,288,10.3,10.3,19,0.00,CLR,,0.00,WeatherDisplay:10.37,2013-04-10 20:28:00,
2013-04-10 14:30:00,62.4,19.5,29.88,WSW,240,9.2,9.2,19,0.00,CLR,,0.00,WeatherDisplay:10.37,2013-04-10 20:30:00,
2013-04-10 14:33:00,62.4,19.5,29.88,West,271,11.5,11.5,19,0.00,CLR,,0.00,WeatherDisplay:10.37,2013-04-10 20:33:00,
2013-04-10 14:35:00,62.2,19.4,29.88,South,183,8.1,8.1,19,0.00,CLR,,0.00,WeatherDisplay:10.37,2013-04-10 20:35:00,
2013-04-10 14:38:00,62.4,19.5,29.88,SW,233,11.5,11.5,19,0.00,CLR,,0.00,WeatherDisplay:10.37,2013-04-10 20:38:00,
2013-04-10 14:40:00,61.9,19.1,29.88,West,277,11.5,11.5,19,0.00,CLR,,0.00,WeatherDisplay:10.37,2013-04-10 20:40:00,
2013-04-10 14:43:00,61.7,19.0,29.87,NW,312,11.5,11.5,19,0.00,CLR,,0.00,WeatherDisplay:10.37,2013-04-10 20:43:00,
2013-04-10 14:44:00,61.7,19.0,29.87,WSW,243,11.5,11.5,19,0.00,CLR,,0.00,WeatherDisplay:10.37,2013-04-10 20:44:00,
2013-04-10 14:45:00,61.9,19.1,29.87,SW,221,11.5,11.5,19,0.00,CLR,,0.00,WeatherDisplay:10.37,2013-04-10 20:45:00,
2013-04-10 14:48:00,62.4,19.5,29.88,NW,313,5.8,5.8,19,0.00,CLR,,0.00,WeatherDisplay:10.37,2013-04-10 20:48:00,
2013-04-10 14:49:00,62.4,19.5,29.88,WNW,288,9.2,9.2,19,0.00,CLR,,0.00,WeatherDisplay:10.37,2013-04-10 20:49:00,
2013-04-10 14:50:00,62.4,18.3,29.87,SW,234,10.3,10.3,18,0.00,CLR,,0.00,WeatherDisplay:10.37,2013-04-10 20:50:00,
2013-04-10 14:51:00,62.4,18.3,29.87,WSW,258,10.3,10.3,18,0.00,CLR,,0.00,WeatherDisplay:10.37,2013-04-10 20:51:00,
2013-04-10 14:53:00,62.6,18.4,29.87,WNW,292,13.8,13.8,18,0.00,CLR,,0.00,WeatherDisplay:10.37,2013-04-10 20:53:00,
2013-04-10 14:54:00,62.5,18.4,29.87,West,280,14.9,14.9,18,0.00,CLR,,0.00,WeatherDisplay:10.37,2013-04-10 20:54:00,
2013-04-10 14:55:00,62.7,18.5,29.87,SSW,204,11.5,11.5,18,0.00,CLR,,0.00,WeatherDisplay:10.37,2013-04-10 20:55:00,
2013-04-10 14:56:00,62.7,17.2,29.87,SW,224,10.3,10.3,17,0.00,CLR,,0.00,WeatherDisplay:10.37,2013-04-10 20:56:00,
2013-04-10 14:59:00,62.9,18.7,29.87,WNW,283,9.0,9.0,18,0.00,CLR,,0.00,WeatherDisplay:10.37,2013-04-10 20:59:00,
2013-04-10 15:00:00,62.6,18.4,29.87,SW,215,11.5,11.5,18,0.00,CLR,,0.00,WeatherDisplay:10.37,2013-04-10 21:00:00,
2013-04-10 15:01:00,62.7,18.5,29.87,WSW,255,6.9,6.9,18,0.00,CLR,,0.00,WeatherDisplay:10.37,2013-04-10 21:01:00,
2013-04-10 15:04:00,62.5,18.4,29.87,WNW,302,11.5,11.5,18,0.00,CLR,,0.00,WeatherDisplay:10.37,2013-04-10 21:04:00,
2013-04-10 15:06:00,62.2,19.4,29.87,WNW,297,4.6,4.6,19,0.00,CLR,,0.00,WeatherDisplay:10.37,2013-04-10 21:06:00,
2013-04-10 15:07:00,62.2,19.4,29.87,WNW,287,11.5,11.5,19,0.00,CLR,,0.00,WeatherDisplay:10.37,2013-04-10 21:07:00,
2013-04-10 15:09:00,62.1,19.3,29.87,WSW,238,4.6,4.6,19,0.00,CLR,,0.00,WeatherDisplay:10.37,2013-04-10 21:09:00,
2013-04-10 15:11:00,62.6,19.7,29.87,SSW,205,6.9,6.9,19,0.00,CLR,,0.00,WeatherDisplay:10.37,2013-04-10 21:11:00,
2013-04-10 15:12:00,62.9,18.7,29.87,NW,305,11.5,11.5,18,0.00,CLR,,0.00,WeatherDisplay:10.37,2013-04-10 21:12:00,
2013-04-10 15:14:00,62.9,18.7,29.86,WNW,290,11.5,11.5,18,0.00,CLR,,0.00,WeatherDisplay:10.37,2013-04-10 21:14:00,
2013-04-10 15:16:00,62.8,18.6,29.87,WNW,284,16.1,16.1,18,0.00,CLR,,0.00,WeatherDisplay:10.37,2013-04-10 21:16:00,
2013-04-10 15:18:00,62.5,18.4,29.87,SW,232,14.9,14.9,18,0.00,CLR,,0.00,WeatherDisplay:10.37,2013-04-10 21:18:00,
2013-04-10 15:19:00,62.3,18.2,29.86,SW,221,14.9,14.9,18,0.00,CLR,,0.00,WeatherDisplay:10.37,2013-04-10 21:19:00,
2013-04-10 15:21:00,61.9,17.9,29.86,WSW,243,17.3,17.3,18,0.00,CLR,,0.00,WeatherDisplay:10.37,2013-04-10 21:21:00,
2013-04-10 15:23:00,62.2,19.4,29.86,SW,221,13.8,13.8,19,0.00,CLR,,0.00,WeatherDisplay:10.37,2013-04-10 21:23:00,
2013-04-10 15:24:00,62.5,19.6,29.87,WNW,293,11.5,11.5,19,0.00,CLR,,0.00,WeatherDisplay:10.37,2013-04-10 21:24:00,
2013-04-10 15:25:00,62.7,18.5,29.87,West,268,14.9,14.9,18,0.00,CLR,,0.00,WeatherDisplay:10.37,2013-04-10 21:25:00,
2013-04-10 15:26:00,62.8,18.6,29.87,WSW,245,11.5,11.5,18,0.00,CLR,,0.00,WeatherDisplay:10.37,2013-04-10 21:26:00,
2013-04-10 15:28:00,63.1,18.9,29.86,NW,304,11.5,11.5,18,0.00,CLR,,0.00,WeatherDisplay:10.37,2013-04-10 21:28:00,
2013-04-10 15:30:00,63.2,18.9,29.86,WSW,258,9.2,9.2,18,0.00,CLR,,0.00,WeatherDisplay:10.37,2013-04-10 21:30:00,
2013-04-10 15:31:00,63.2,18.9,29.86,WSW,239,11.5,11.5,18,0.00,CLR,,0.00,WeatherDisplay:10.37,2013-04-10 21:31:00,
2013-04-10 15:34:00,63.3,17.7,29.86,SW,220,11.5,11.5,17,0.00,CLR,,0.00,WeatherDisplay:10.37,2013-04-10 21:34:00,
2013-04-10 15:35:00,63.4,19.1,29.86,North,1,11.5,11.5,18,0.00,CLR,,0.00,WeatherDisplay:10.37,2013-04-10 21:35:00,
2013-04-10 15:36:00,63.3,19.0,29.86,WNW,289,17.3,17.3,18,0.00,CLR,,0.00,WeatherDisplay:10.37,2013-04-10 21:36:00,
2013-04-10 15:39:00,63.4,19.1,29.86,WSW,253,6.0,17.0,18,0.00,CLR,,0.00,WeatherDisplay:10.37,2013-04-10 21:39:00,
2013-04-10 15:40:00,63.6,17.9,29.86,WSW,240,8.1,8.1,17,0.00,CLR,,0.00,WeatherDisplay:10.37,2013-04-10 21:40:00,
2013-04-10 15:41:00,63.7,19.3,29.86,WNW,285,11.5,11.5,18,0.00,CLR,,0.00,WeatherDisplay:10.37,2013-04-10 21:41:00,
2013-04-10 15:44:00,63.7,19.3,29.86,WSW,256,6.9,6.9,18,0.00,CLR,,0.00,WeatherDisplay:10.37,2013-04-10 21:44:00,
2013-04-10 15:45:00,63.7,19.3,29.86,WNW,283,9.2,9.2,18,0.00,CLR,,0.00,WeatherDisplay:10.37,2013-04-10 21:45:00,
2013-04-10 15:47:00,63.7,19.3,29.86,WNW,288,11.5,11.5,18,0.00,CLR,,0.00,WeatherDisplay:10.37,2013-04-10 21:47:00,
2013-04-10 15:49:00,63.2,18.9,29.85,WNW,287,13.8,13.8,18,0.00,CLR,,0.00,WeatherDisplay:10.37,2013-04-10 21:49:00,
2013-04-10 15:50:00,63.0,18.8,29.85,WNW,292,9.2,9.2,18,0.00,CLR,,0.00,WeatherDisplay:10.37,2013-04-10 21:50:00,
2013-04-10 15:51:00,62.9,18.7,29.86,WNW,283,9.2,9.2,18,0.00,CLR,,0.00,WeatherDisplay:10.37,2013-04-10 21:51:00,
2013-04-10 15:52:00,62.9,18.7,29.85,SW,232,9.2,9.2,18,0.00,CLR,,0.00,WeatherDisplay:10.37,2013-04-10 21:52:00,
2013-04-10 15:54:00,63.3,19.0,29.85,West,264,10.3,10.3,18,0.00,CLR,,0.00,WeatherDisplay:10.37,2013-04-10 21:54:00,
2013-04-10 15:55:00,63.4,19.1,29.85,WNW,294,10.3,10.3,18,0.00,CLR,,0.00,WeatherDisplay:10.37,2013-04-10 21:55:00,
2013-04-10 15:56:00,63.4,19.1,29.85,WSW,249,10.3,10.3,18,0.00,CLR,,0.00,WeatherDisplay:10.37,2013-04-10 21:56:00,
2013-04-10 15:57:00,63.4,19.1,29.85,WNW,288,17.3,17.3,18,0.00,CLR,,0.00,WeatherDisplay:10.37,2013-04-10 21:57:00,
2013-04-10 16:00:00,63.1,18.9,29.85,NW,305,11.5,11.5,18,0.00,CLR,,0.00,WeatherDisplay:10.37,2013-04-10 22:00:00,
2013-04-10 16:01:00,63.0,18.8,29.85,NW,308,13.8,13.8,18,0.00,CLR,,0.00,WeatherDisplay:10.37,2013-04-10 22:01:00,
2013-04-10 16:02:00,62.9,18.7,29.86,WSW,256,16.1,16.1,18,0.00,CLR,,0.00,WeatherDisplay:10.37,2013-04-10 22:02:00,
2013-04-10 16:05:00,62.2,18.1,29.86,WNW,287,8.1,8.1,18,0.00,CLR,,0.00,WeatherDisplay:10.37,2013-04-10 22:05:00,
2013-04-10 16:06:00,62.1,19.3,29.85,WSW,256,8.1,8.1,19,0.00,CLR,,0.00,WeatherDisplay:10.37,2013-04-10 22:06:00,
2013-04-10 16:07:00,62.0,19.2,29.85,NW,309,6.9,6.9,19,0.00,CLR,,0.00,WeatherDisplay:10.37,2013-04-10 22:07:00,
2013-04-10 16:10:00,61.7,19.0,29.85,WSW,251,10.3,10.3,19,0.00,CLR,,0.00,WeatherDisplay:10.37,2013-04-10 22:10:00,
2013-04-10 16:11:00,62.1,18.0,29.85,West,266,9.2,9.2,18,0.00,CLR,,0.00,WeatherDisplay:10.37,2013-04-10 22:11:00,
2013-04-10 16:12:00,62.2,18.1,29.85,SW,225,11.5,11.5,18,0.00,CLR,,0.00,WeatherDisplay:10.37,2013-04-10 22:12:00,
2013-04-10 16:15:00,62.8,18.6,29.85,WSW,251,17.3,17.3,18,0.00,CLR,,0.00,WeatherDisplay:10.37,2013-04-10 22:15:00,
2013-04-10 16:17:00,62.8,18.6,29.85,NW,309,19.5,19.5,18,0.00,CLR,,0.00,WeatherDisplay:10.37,2013-04-10 22:17:00,
2013-04-10 16:20:00,62.6,18.4,29.85,WNW,282,6.9,6.9,18,0.00,CLR,,0.00,WeatherDisplay:10.37,2013-04-10 22:20:00,
2013-04-10 16:22:00,62.8,18.6,29.85,WSW,255,9.2,9.2,18,0.00,CLR,,0.00,WeatherDisplay:10.37,2013-04-10 22:22:00,
2013-04-10 16:25:00,62.5,18.4,29.86,NW,318,16.1,16.1,18,0.00,CLR,,0.00,WeatherDisplay:10.37,2013-04-10 22:25:00,
2013-04-10 16:27:00,61.9,17.9,29.86,WNW,295,11.5,11.5,18,0.00,CLR,,0.00,WeatherDisplay:10.37,2013-04-10 22:27:00,
2013-04-10 16:30:00,61.5,18.8,29.86,WNW,293,16.0,16.0,19,0.00,CLR,,0.00,WeatherDisplay:10.37,2013-04-10 22:30:00,
2013-04-10 16:32:00,61.4,18.7,29.86,West,265,11.5,11.5,19,0.00,CLR,,0.00,WeatherDisplay:10.37,2013-04-10 22:32:00,
2013-04-10 16:35:00,61.4,18.7,29.86,WSW,245,11.5,11.5,19,0.00,CLR,,0.00,WeatherDisplay:10.37,2013-04-10 22:35:00,
2013-04-10 16:36:00,61.4,18.7,29.86,WNW,291,16.1,16.1,19,0.00,CLR,,0.00,WeatherDisplay:10.37,2013-04-10 22:36:00,
2013-04-10 16:37:00,61.6,18.9,29.86,NNW,343,14.0,14.0,19,0.00,CLR,,0.00,WeatherDisplay:10.37,2013-04-10 22:37:00,
2013-04-10 16:40:00,62.0,19.2,29.86,NNW,334,8.1,8.1,19,0.00,CLR,,0.00,WeatherDisplay:10.37,2013-04-10 22:40:00,
2013-04-10 16:41:00,62.0,19.2,29.86,NW,304,12.0,12.0,19,0.00,CLR,,0.00,WeatherDisplay:10.37,2013-04-10 22:41:00,
2013-04-10 16:42:00,61.9,19.1,29.86,NW,312,16.1,16.1,19,0.00,CLR,,0.00,WeatherDisplay:10.37,2013-04-10 22:42:00,
2013-04-10 16:45:00,61.4,19.9,29.86,West,259,7.0,7.0,20,0.00,CLR,,0.00,WeatherDisplay:10.37,2013-04-10 22:45:00,
2013-04-10 16:46:00,61.4,19.9,29.86,NNW,331,9.2,9.2,20,0.00,CLR,,0.00,WeatherDisplay:10.37,2013-04-10 22:46:00,
2013-04-10 16:47:00,61.4,19.9,29.86,NW,304,11.5,11.5,20,0.00,CLR,,0.00,WeatherDisplay:10.37,2013-04-10 22:47:00,
2013-04-10 16:50:00,61.3,19.8,29.86,NW,323,19.5,19.5,20,0.00,CLR,,0.00,WeatherDisplay:10.37,2013-04-10 22:50:00,
2013-04-10 16:52:00,61.3,19.8,29.86,WSW,253,3.4,3.4,20,0.00,CLR,,0.00,WeatherDisplay:10.37,2013-04-10 22:52:00,
2013-04-10 16:53:00,61.4,19.9,29.86,WNW,302,9.2,9.2,20,0.00,CLR,,0.00,WeatherDisplay:10.37,2013-04-10 22:53:00,
2013-04-10 16:55:00,61.8,20.3,29.86,NW,319,10.0,10.0,20,0.00,CLR,,0.00,WeatherDisplay:10.37,2013-04-10 22:55:00,
2013-04-10 16:57:00,61.7,20.2,29.86,WNW,294,11.5,11.5,20,0.00,CLR,,0.00,WeatherDisplay:10.37,2013-04-10 22:57:00,
2013-04-10 16:58:00,61.6,20.1,29.86,WNW,283,11.5,11.5,20,0.00,CLR,,0.00,WeatherDisplay:10.37,2013-04-10 22:58:00,
2013-04-10 17:00:00,61.4,19.9,29.86,WNW,302,16.0,16.0,20,0.00,CLR,,0.00,WeatherDisplay:10.37,2013-04-10 23:00:00,
2013-04-10 17:02:00,61.1,19.7,29.86,West,270,14.9,14.9,20,0.00,CLR,,0.00,WeatherDisplay:10.37,2013-04-10 23:02:00,
2013-04-10 17:03:00,61.0,19.6,29.86,West,275,9.2,9.2,20,0.00,CLR,,0.00,WeatherDisplay:10.37,2013-04-10 23:03:00,
2013-04-10 17:06:00,60.9,19.5,29.86,WNW,295,13.8,13.8,20,0.00,CLR,,0.00,WeatherDisplay:10.37,2013-04-10 23:06:00,
2013-04-10 17:07:00,60.8,19.4,29.86,WNW,299,11.5,11.5,20,0.00,CLR,,0.00,WeatherDisplay:10.37,2013-04-10 23:07:00,
2013-04-10 17:08:00,60.8,19.4,29.86,West,281,17.0,17.0,20,0.00,CLR,,0.00,WeatherDisplay:10.37,2013-04-10 23:08:00,
2013-04-10 17:11:00,60.8,19.4,29.86,NW,319,17.3,17.3,20,0.00,CLR,,0.00,WeatherDisplay:10.37,2013-04-10 23:11:00,
2013-04-10 17:12:00,61.0,20.7,29.86,WNW,282,16.1,16.1,21,0.00,CLR,,0.00,WeatherDisplay:10.37,2013-04-10 23:12:00,
2013-04-10 17:13:00,61.2,20.9,29.86,WNW,290,11.5,11.5,21,0.00,CLR,,0.00,WeatherDisplay:10.37,2013-04-10 23:13:00,
2013-04-10 17:14:00,61.2,19.8,29.86,WNW,299,11.5,11.5,20,0.00,CLR,,0.00,WeatherDisplay:10.37,2013-04-10 23:14:00,
2013-04-10 17:17:00,61.6,20.1,29.86,SW,231,16.1,16.1,20,0.00,CLR,,0.00,WeatherDisplay:10.37,2013-04-10 23:17:00,
2013-04-10 17:19:00,61.6,20.1,29.86,WNW,297,11.5,11.5,20,0.00,CLR,,0.00,WeatherDisplay:10.37,2013-04-10 23:19:00,
2013-04-10 17:22:00,61.7,20.2,29.86,NW,308,11.5,11.5,20,0.00,CLR,,0.00,WeatherDisplay:10.37,2013-04-10 23:22:00,
2013-04-10 17:24:00,61.7,20.2,29.86,NW,316,13.8,13.8,20,0.00,CLR,,0.00,WeatherDisplay:10.37,2013-04-10 23:24:00,
2013-04-10 17:27:00,61.6,20.1,29.86,West,274,21.9,21.9,20,0.00,CLR,,0.00,WeatherDisplay:10.37,2013-04-10 23:27:00,
2013-04-10 17:29:00,61.4,19.9,29.86,West,265,10.0,10.0,20,0.00,CLR,,0.00,WeatherDisplay:10.37,2013-04-10 23:29:00,
2013-04-10 17:32:00,61.8,20.3,29.87,WNW,287,15.0,15.0,20,0.00,CLR,,0.00,WeatherDisplay:10.37,2013-04-10 23:32:00,
2013-04-10 17:34:00,61.4,19.9,29.87,WSW,248,16.1,16.1,20,0.00,CLR,,0.00,WeatherDisplay:10.37,2013-04-10 23:34:00,
2013-04-10 17:35:00,61.4,19.9,29.87,West,274,11.5,11.5,20,0.00,CLR,,0.00,WeatherDisplay:10.37,2013-04-10 23:35:00,
2013-04-10 17:37:00,61.0,19.6,29.87,NW,323,4.6,4.6,20,0.00,CLR,,0.00,WeatherDisplay:10.37,2013-04-10 23:37:00,
2013-04-10 17:39:00,60.9,19.5,29.87,NW,312,8.1,8.1,20,0.00,CLR,,0.00,WeatherDisplay:10.37,2013-04-10 23:39:00,
2013-04-10 17:40:00,60.9,19.5,29.87,West,262,9.2,9.2,20,0.00,CLR,,0.00,WeatherDisplay:10.37,2013-04-10 23:40:00,
2013-04-10 17:42:00,60.5,19.2,29.87,WSW,252,11.5,11.5,20,0.00,CLR,,0.00,WeatherDisplay:10.37,2013-04-10 23:42:00,
2013-04-10 17:44:00,60.2,18.9,29.87,West,260,9.2,9.2,20,0.00,CLR,,0.00,WeatherDisplay:10.37,2013-04-10 23:44:00,
2013-04-10 17:45:00,60.1,18.8,29.86,NW,322,8.1,8.1,20,0.00,CLR,,0.00,WeatherDisplay:10.37,2013-04-10 23:45:00,
2013-04-10 17:47:00,60.1,20.0,29.86,West,278,11.5,11.5,21,0.00,CLR,,0.00,WeatherDisplay:10.37,2013-04-10 23:47:00,
2013-04-10 17:48:00,60.1,20.0,29.86,West,268,10.3,10.3,21,0.00,CLR,,0.00,WeatherDisplay:10.37,2013-04-10 23:48:00,
2013-04-10 17:49:00,60.1,18.8,29.86,West,259,10.3,10.3,20,0.00,CLR,,0.00,WeatherDisplay:10.37,2013-04-10 23:49:00,
2013-04-10 17:50:00,60.1,20.0,29.86,SW,232,10.3,10.3,21,0.00,CLR,,0.00,WeatherDisplay:10.37,2013-04-10 23:50:00,
2013-04-10 17:53:00,60.3,20.2,29.86,NW,321,12.0,12.0,21,0.00,CLR,,0.00,WeatherDisplay:10.37,2013-04-10 23:53:00,
2013-04-10 17:55:00,60.2,18.9,29.86,WNW,293,10.3,10.3,20,0.00,CLR,,0.00,WeatherDisplay:10.37,2013-04-10 23:55:00,
2013-04-10 17:58:00,60.2,18.9,29.86,West,266,11.5,11.5,20,0.00,CLR,,0.00,WeatherDisplay:10.37,2013-04-10 23:58:00,
2013-04-10 17:59:00,60.2,18.9,29.86,NW,309,11.5,11.5,20,0.00,CLR,,0.00,WeatherDisplay:10.37,2013-04-10 23:59:00,
2013-04-10 18:00:00,60.1,18.8,29.86,West,277,9.2,9.2,20,0.00,CLR,,0.00,WeatherDisplay:10.37,2013-04-11 00:00:00,
2013-04-10 18:03:00,60.3,19.0,29.86,WNW,295,17.3,17.3,20,0.00,CLR,,0.00,WeatherDisplay:10.37,2013-04-11 00:03:00,
2013-04-10 18:04:00,60.3,19.0,29.86,WNW,287,10.0,17.0,20,0.00,CLR,,0.00,WeatherDisplay:10.37,2013-04-11 00:04:00,
2013-04-10 18:05:00,60.5,19.2,29.87,NW,304,11.5,11.5,20,0.00,CLR,,0.00,WeatherDisplay:10.37,2013-04-11 00:05:00,
2013-04-10 18:08:00,60.8,19.4,29.87,WNW,295,10.3,10.3,20,0.00,CLR,,0.00,WeatherDisplay:10.37,2013-04-11 00:08:00,
2013-04-10 18:09:00,60.8,19.4,29.87,WNW,297,9.2,9.2,20,0.00,CLR,,0.00,WeatherDisplay:10.37,2013-04-11 00:09:00,
2013-04-10 18:10:00,60.8,19.4,29.87,WNW,290,14.0,14.0,20,0.00,CLR,,0.00,WeatherDisplay:10.37,2013-04-11 00:10:00,
2013-04-10 18:13:00,60.7,19.3,29.86,West,276,11.5,11.5,20,0.00,CLR,,0.00,WeatherDisplay:10.37,2013-04-11 00:13:00,
2013-04-10 18:14:00,60.8,19.4,29.87,WNW,288,17.3,17.3,20,0.00,CLR,,0.00,WeatherDisplay:10.37,2013-04-11 00:14:00,
2013-04-10 18:15:00,60.8,19.4,29.87,WSW,243,11.5,11.5,20,0.00,CLR,,0.00,WeatherDisplay:10.37,2013-04-11 00:15:00,
2013-04-10 18:16:00,60.8,19.4,29.87,WNW,285,11.5,11.5,20,0.00,CLR,,0.00,WeatherDisplay:10.37,2013-04-11 00:16:00,
2013-04-10 18:18:00,60.9,19.5,29.87,WNW,299,11.5,11.5,20,0.00,CLR,,0.00,WeatherDisplay:10.37,2013-04-11 00:18:00,
2013-04-10 18:19:00,60.8,19.4,29.87,South,184,11.5,11.5,20,0.00,CLR,,0.00,WeatherDisplay:10.37,2013-04-11 00:19:00,
2013-04-10 18:20:00,60.8,19.4,29.87,WSW,242,10.3,10.3,20,0.00,CLR,,0.00,WeatherDisplay:10.37,2013-04-11 00:20:00,
2013-04-10 18:21:00,60.8,19.4,29.87,West,266,5.8,5.8,20,0.00,CLR,,0.00,WeatherDisplay:10.37,2013-04-11 00:21:00,
2013-04-10 18:24:00,60.8,19.4,29.87,West,271,14.9,14.9,20,0.00,CLR,,0.00,WeatherDisplay:10.37,2013-04-11 00:24:00,
2013-04-10 18:25:00,60.7,19.3,29.87,WNW,293,19.5,19.5,20,0.00,CLR,,0.00,WeatherDisplay:10.37,2013-04-11 00:25:00,
2013-04-10 18:26:00,60.7,19.3,29.87,West,277,11.5,11.5,20,0.00,CLR,,0.00,WeatherDisplay:10.37,2013-04-11 00:26:00,
2013-04-10 18:29:00,60.5,19.2,29.87,NW,310,18.4,18.4,20,0.00,CLR,,0.00,WeatherDisplay:10.37,2013-04-11 00:29:00,
2013-04-10 18:30:00,60.5,20.3,29.87,West,274,11.5,11.5,21,0.00,CLR,,0.00,WeatherDisplay:10.37,2013-04-11 00:30:00,
2013-04-10 18:32:00,60.5,20.3,29.87,NW,316,13.8,13.8,21,0.00,CLR,,0.00,WeatherDisplay:10.37,2013-04-11 00:32:00,
2013-04-10 18:34:00,60.4,20.2,29.87,NW,314,11.5,11.5,21,0.00,CLR,,0.00,WeatherDisplay:10.37,2013-04-11 00:34:00,
2013-04-10 18:35:00,60.4,20.2,29.88,WNW,297,11.5,11.5,21,0.00,CLR,,0.00,WeatherDisplay:10.37,2013-04-11 00:35:00,
2013-04-10 18:36:00,60.4,20.2,29.87,WNW,299,8.1,8.1,21,0.00,CLR,,0.00,WeatherDisplay:10.37,2013-04-11 00:36:00,
2013-04-10 18:37:00,60.4,20.2,29.87,WNW,297,11.5,11.5,21,0.00,CLR,,0.00,WeatherDisplay:10.37,2013-04-11 00:37:00,
2013-04-10 18:39:00,60.3,20.2,29.87,SSW,201,10.3,10.3,21,0.00,CLR,,0.00,WeatherDisplay:10.37,2013-04-11 00:39:00,
2013-04-10 18:40:00,60.2,20.1,29.87,West,278,6.9,6.9,21,0.00,CLR,,0.00,WeatherDisplay:10.37,2013-04-11 00:40:00,
2013-04-10 18:41:00,60.3,20.2,29.88,WNW,302,9.2,9.2,21,0.00,CLR,,0.00,WeatherDisplay:10.37,2013-04-11 00:41:00,
2013-04-10 18:42:00,60.2,20.1,29.87,WNW,302,10.3,10.3,21,0.00,CLR,,0.00,WeatherDisplay:10.37,2013-04-11 00:42:00,
2013-04-10 18:44:00,60.3,20.2,29.87,WNW,295,11.5,11.5,21,0.00,CLR,,0.00,WeatherDisplay:10.37,2013-04-11 00:44:00,
2013-04-10 18:45:00,60.2,20.1,29.87,WSW,256,11.5,11.5,21,0.00,CLR,,0.00,WeatherDisplay:10.37,2013-04-11 00:45:00,
2013-04-10 18:46:00,60.1,20.0,29.87,WNW,287,14.9,14.9,21,0.00,CLR,,0.00,WeatherDisplay:10.37,2013-04-11 00:46:00,
2013-04-10 18:47:00,60.1,20.0,29.87,West,275,9.2,9.2,21,0.00,CLR,,0.00,WeatherDisplay:10.37,2013-04-11 00:47:00,
2013-04-10 18:49:00,59.8,19.7,29.87,WNW,292,14.9,14.9,21,0.00,CLR,,0.00,WeatherDisplay:10.37,2013-04-11 00:49:00,
2013-04-10 18:50:00,59.6,19.6,29.88,West,281,16.1,16.1,21,0.00,CLR,,0.00,WeatherDisplay:10.37,2013-04-11 00:50:00,
2013-04-10 18:51:00,59.5,19.5,29.87,WSW,252,13.8,13.8,21,0.00,CLR,,0.00,WeatherDisplay:10.37,2013-04-11 00:51:00,
2013-04-10 18:53:00,59.4,19.4,29.88,NW,304,19.5,19.5,21,0.00,CLR,,0.00,WeatherDisplay:10.37,2013-04-11 00:53:00,
2013-04-10 18:54:00,59.4,19.4,29.88,West,280,16.1,16.1,21,0.00,CLR,,0.00,WeatherDisplay:10.37,2013-04-11 00:54:00,
2013-04-10 18:55:00,59.3,19.3,29.88,WNW,302,11.5,11.5,21,0.00,CLR,,0.00,WeatherDisplay:10.37,2013-04-11 00:55:00,
2013-04-10 18:56:00,59.3,19.3,29.88,WNW,302,11.5,11.5,21,0.00,CLR,,0.00,WeatherDisplay:10.37,2013-04-11 00:56:00,
2013-04-10 18:58:00,59.3,19.3,29.88,West,266,10.3,10.3,21,0.00,CLR,,0.00,WeatherDisplay:10.37,2013-04-11 00:58:00,
2013-04-10 18:59:00,59.2,20.3,29.88,West,259,8.1,8.1,22,0.00,CLR,,0.00,WeatherDisplay:10.37,2013-04-11 00:59:00,
2013-04-10 19:00:00,59.2,20.3,29.88,West,281,11.5,11.5,22,0.00,CLR,,0.00,WeatherDisplay:10.37,2013-04-11 01:00:00,
2013-04-10 19:02:00,59.2,19.2,29.88,West,273,19.5,19.5,21,0.00,CLR,,0.00,WeatherDisplay:10.37,2013-04-11 01:02:00,
2013-04-10 19:03:00,59.1,19.1,29.88,WNW,290,11.5,11.5,21,0.00,CLR,,0.00,WeatherDisplay:10.37,2013-04-11 01:03:00,
2013-04-10 19:05:00,59.1,20.2,29.88,NW,316,8.1,8.1,22,0.00,CLR,,0.00,WeatherDisplay:10.37,2013-04-11 01:05:00,
2013-04-10 19:07:00,58.9,20.1,29.88,WNW,298,11.5,11.5,22,0.00,CLR,,0.00,WeatherDisplay:10.37,2013-04-11 01:07:00,
2013-04-10 19:08:00,58.8,20.0,29.88,WNW,298,6.9,6.9,22,0.00,CLR,,0.00,WeatherDisplay:10.37,2013-04-11 01:08:00,
2013-04-10 19:10:00,58.7,19.9,29.88,WSW,253,3.4,3.4,22,0.00,CLR,,0.00,WeatherDisplay:10.37,2013-04-11 01:10:00,
2013-04-10 19:12:00,58.7,19.9,29.88,West,277,8.1,8.1,22,0.00,CLR,,0.00,WeatherDisplay:10.37,2013-04-11 01:12:00,
2013-04-10 19:13:00,58.7,19.9,29.88,WNW,285,6.0,6.0,22,0.00,CLR,,0.00,WeatherDisplay:10.37,2013-04-11 01:13:00,
2013-04-10 19:15:00,58.6,19.8,29.88,WNW,284,8.1,8.1,22,0.00,CLR,,0.00,WeatherDisplay:10.37,2013-04-11 01:15:00,
2013-04-10 19:16:00,58.6,19.8,29.88,NW,311,13.8,13.8,22,0.00,CLR,,0.00,WeatherDisplay:10.37,2013-04-11 01:16:00,
2013-04-10 19:17:00,58.4,19.7,29.88,WNW,293,11.5,11.5,22,0.00,CLR,,0.00,WeatherDisplay:10.37,2013-04-11 01:17:00,
2013-04-10 19:18:00,58.4,19.7,29.88,WNW,295,11.5,11.5,22,0.00,CLR,,0.00,WeatherDisplay:10.37,2013-04-11 01:18:00,
2013-04-10 19:20:00,58.3,19.6,29.88,West,266,10.3,10.3,22,0.00,CLR,,0.00,WeatherDisplay:10.37,2013-04-11 01:20:00,
2013-04-10 19:21:00,58.2,19.5,29.88,WNW,283,10.3,10.3,22,0.00,CLR,,0.00,WeatherDisplay:10.37,2013-04-11 01:21:00,
2013-04-10 19:22:00,58.2,19.5,29.88,WNW,290,11.5,11.5,22,0.00,CLR,,0.00,WeatherDisplay:10.37,2013-04-11 01:22:00,
2013-04-10 19:23:00,58.1,19.4,29.88,West,277,11.5,11.5,22,0.00,CLR,,0.00,WeatherDisplay:10.37,2013-04-11 01:23:00,
2013-04-10 19:25:00,58.0,20.4,29.88,NNW,342,5.8,5.8,23,0.00,CLR,,0.00,WeatherDisplay:10.37,2013-04-11 01:25:00,
2013-04-10 19:26:00,58.0,20.4,29.88,West,275,8.1,8.1,23,0.00,CLR,,0.00,WeatherDisplay:10.37,2013-04-11 01:26:00,
2013-04-10 19:27:00,58.0,20.4,29.88,WNW,295,10.3,10.3,23,0.00,CLR,,0.00,WeatherDisplay:10.37,2013-04-11 01:27:00,
2013-04-10 19:28:00,57.9,20.3,29.88,NW,324,11.5,11.5,23,0.00,CLR,,0.00,WeatherDisplay:10.37,2013-04-11 01:28:00,
2013-04-10 19:30:00,57.9,20.3,29.88,West,259,9.2,9.2,23,0.00,CLR,,0.00,WeatherDisplay:10.37,2013-04-11 01:30:00,
2013-04-10 19:31:00,57.8,20.2,29.89,NW,325,9.0,9.0,23,0.00,CLR,,0.00,WeatherDisplay:10.37,2013-04-11 01:31:00,
2013-04-10 19:32:00,57.8,20.2,29.89,WNW,288,13.8,13.8,23,0.00,CLR,,0.00,WeatherDisplay:10.37,2013-04-11 01:32:00,
2013-04-10 19:34:00,57.8,20.2,29.88,NNW,330,6.9,7.5,23,0.00,CLR,,0.00,WeatherDisplay:10.37,2013-04-11 01:34:00,
2013-04-10 19:36:00,57.7,20.1,29.89,WSW,250,7.0,7.0,23,0.00,CLR,,0.00,WeatherDisplay:10.37,2013-04-11 01:36:00,
2013-04-10 19:37:00,57.6,20.0,29.89,WNW,293,9.2,9.2,23,0.00,CLR,,0.00,WeatherDisplay:10.37,2013-04-11 01:37:00,
2013-04-10 19:39:00,57.6,20.0,29.89,WNW,291,8.1,8.1,23,0.00,CLR,,0.00,WeatherDisplay:10.37,2013-04-11 01:39:00,
2013-04-10 19:41:00,57.4,19.9,29.89,NNW,333,10.3,10.3,23,0.00,CLR,,0.00,WeatherDisplay:10.37,2013-04-11 01:41:00,
2013-04-10 19:42:00,57.4,19.9,29.89,NW,321,8.1,8.1,23,0.00,CLR,,0.00,WeatherDisplay:10.37,2013-04-11 01:42:00,
2013-04-10 19:44:00,57.3,20.8,29.89,West,280,4.0,4.0,24,0.00,CLR,,0.00,WeatherDisplay:10.37,2013-04-11 01:44:00,
2013-04-10 19:46:00,57.2,20.7,29.89,West,281,5.8,5.8,24,0.00,CLR,,0.00,WeatherDisplay:10.37,2013-04-11 01:46:00,
2013-04-10 19:47:00,57.1,20.6,29.89,WNW,292,10.3,10.3,24,0.00,CLR,,0.00,WeatherDisplay:10.37,2013-04-11 01:47:00,
2013-04-10 19:48:00,57.1,20.6,29.89,WNW,288,11.5,11.5,24,0.00,CLR,,0.00,WeatherDisplay:10.37,2013-04-11 01:48:00,
2013-04-10 19:49:00,57.1,20.6,29.89,WNW,292,9.2,9.2,24,0.00,CLR,,0.00,WeatherDisplay:10.37,2013-04-11 01:49:00,
2013-04-10 19:51:00,57.0,20.5,29.89,West,281,9.2,9.2,24,0.00,CLR,,0.00,WeatherDisplay:10.37,2013-04-11 01:51:00,
2013-04-10 19:52:00,56.9,20.4,29.89,West,280,6.9,6.9,24,0.00,CLR,,0.00,WeatherDisplay:10.37,2013-04-11 01:52:00,
2013-04-10 19:53:00,56.9,20.4,29.89,WNW,293,6.9,6.9,24,0.00,CLR,,0.00,WeatherDisplay:10.37,2013-04-11 01:53:00,
2013-04-10 19:54:00,56.8,21.3,29.89,West,266,4.6,4.6,25,0.00,CLR,,0.00,WeatherDisplay:10.37,2013-04-11 01:54:00,
2013-04-10 19:56:00,56.7,20.3,29.89,WNW,283,10.0,10.0,24,0.00,CLR,,0.00,WeatherDisplay:10.37,2013-04-11 01:56:00,
2013-04-10 19:57:00,56.7,20.3,29.90,WNW,285,13.8,13.8,24,0.00,CLR,,0.00,WeatherDisplay:10.37,2013-04-11 01:57:00,
2013-04-10 19:58:00,56.7,20.3,29.90,NW,313,13.8,13.8,24,0.00,CLR,,0.00,WeatherDisplay:10.37,2013-04-11 01:58:00,
2013-04-10 20:00:00,56.7,21.2,29.90,WNW,283,6.9,6.9,25,0.00,CLR,,0.00,WeatherDisplay:10.37,2013-04-11 02:00:00,
2013-04-10 20:02:00,56.7,21.2,29.89,WNW,290,5.8,5.8,25,0.00,CLR,,0.00,WeatherDisplay:10.37,2013-04-11 02:02:00,
2013-04-10 20:03:00,56.6,21.1,29.90,WNW,287,11.5,11.5,25,0.00,CLR,,0.00,WeatherDisplay:10.37,2013-04-11 02:03:00,
2013-04-10 20:05:00,56.6,21.1,29.90,WNW,300,11.5,11.5,25,0.00,CLR,,0.00,WeatherDisplay:10.37,2013-04-11 02:05:00,
2013-04-10 20:07:00,56.5,21.1,29.90,NW,318,5.8,5.8,25,0.00,CLR,,0.00,WeatherDisplay:10.37,2013-04-11 02:07:00,
2013-04-10 20:08:00,56.5,21.1,29.90,WNW,294,9.0,9.0,25,0.00,CLR,,0.00,WeatherDisplay:10.37,2013-04-11 02:08:00,
2013-04-10 20:10:00,56.4,21.0,29.90,WNW,298,8.1,8.1,25,0.00,CLR,,0.00,WeatherDisplay:10.37,2013-04-11 02:10:00,
2013-04-10 20:12:00,56.4,21.0,29.90,WNW,292,5.0,5.0,25,0.00,CLR,,0.00,WeatherDisplay:10.37,2013-04-11 02:12:00,
2013-04-10 20:13:00,56.3,20.9,29.90,WNW,301,5.8,5.8,25,0.00,CLR,,0.00,WeatherDisplay:10.37,2013-04-11 02:13:00,
2013-04-10 20:15:00,56.2,20.8,29.90,NW,307,9.2,9.2,25,0.00,CLR,,0.00,WeatherDisplay:10.37,2013-04-11 02:15:00,
2013-04-10 20:17:00,56.2,20.8,29.90,WNW,300,10.3,10.3,25,0.00,CLR,,0.00,WeatherDisplay:10.37,2013-04-11 02:17:00,
2013-04-10 20:18:00,56.2,20.8,29.90,WNW,298,10.3,10.3,25,0.00,CLR,,0.00,WeatherDisplay:10.37,2013-04-11 02:18:00,
2013-04-10 20:21:00,56.1,20.7,29.90,WNW,284,11.5,11.5,25,0.00,CLR,,0.00,WeatherDisplay:10.37,2013-04-11 02:21:00,
2013-04-10 20:22:00,56.1,20.7,29.90,WNW,284,9.2,9.2,25,0.00,CLR,,0.00,WeatherDisplay:10.37,2013-04-11 02:22:00,
2013-04-10 20:23:00,56.1,20.7,29.90,WNW,284,6.9,6.9,25,0.00,CLR,,0.00,WeatherDisplay:10.37,2013-04-11 02:23:00,
2013-04-10 20:24:00,56.1,20.7,29.90,NW,321,5.8,5.8,25,0.00,CLR,,0.00,WeatherDisplay:10.37,2013-04-11 02:24:00,
2013-04-10 20:26:00,56.0,21.6,29.91,NW,314,6.0,6.0,26,0.00,CLR,,0.00,WeatherDisplay:10.37,2013-04-11 02:26:00,
2013-04-10 20:27:00,55.9,21.5,29.91,NW,305,10.3,10.3,26,0.00,CLR,,0.00,WeatherDisplay:10.37,2013-04-11 02:27:00,
2013-04-10 20:28:00,56.0,21.6,29.91,WNW,291,9.2,9.2,26,0.00,CLR,,0.00,WeatherDisplay:10.37,2013-04-11 02:28:00,
2013-04-10 20:29:00,55.9,21.5,29.91,NW,318,10.3,10.3,26,0.00,CLR,,0.00,WeatherDisplay:10.37,2013-04-11 02:29:00,
2013-04-10 20:31:00,55.9,21.5,29.91,WNW,283,6.9,6.9,26,0.00,CLR,,0.00,WeatherDisplay:10.37,2013-04-11 02:31:00,
2013-04-10 20:32:00,55.9,21.5,29.91,NW,314,5.8,5.8,26,0.00,CLR,,0.00,WeatherDisplay:10.37,2013-04-11 02:32:00,
2013-04-10 20:33:00,55.8,21.4,29.91,NW,309,4.0,4.0,26,0.00,CLR,,0.00,WeatherDisplay:10.37,2013-04-11 02:33:00,
2013-04-10 20:34:00,55.8,21.4,29.91,West,281,7.0,7.0,26,0.00,CLR,,0.00,WeatherDisplay:10.37,2013-04-11 02:34:00,
2013-04-10 20:36:00,55.8,21.4,29.91,WNW,292,11.0,11.0,26,0.00,CLR,,0.00,WeatherDisplay:10.37,2013-04-11 02:36:00,
2013-04-10 20:38:00,55.8,21.4,29.91,WNW,293,10.3,10.3,26,0.00,CLR,,0.00,WeatherDisplay:10.37,2013-04-11 02:38:00,
2013-04-10 20:39:00,55.7,21.3,29.91,WNW,285,5.8,5.8,26,0.00,CLR,,0.00,WeatherDisplay:10.37,2013-04-11 02:39:00,
2013-04-10 20:41:00,55.7,21.3,29.91,NW,307,9.2,9.2,26,0.00,CLR,,0.00,WeatherDisplay:10.37,2013-04-11 02:41:00,
2013-04-10 20:43:00,55.6,21.2,29.91,NW,317,10.3,10.3,26,0.00,CLR,,0.00,WeatherDisplay:10.37,2013-04-11 02:43:00,
2013-04-10 20:44:00,55.6,21.2,29.91,NW,315,10.3,10.3,26,0.00,CLR,,0.00,WeatherDisplay:10.37,2013-04-11 02:44:00,
2013-04-10 20:46:00,55.6,21.2,29.91,West,274,11.5,11.5,26,0.00,CLR,,0.00,WeatherDisplay:10.37,2013-04-11 02:46:00,
2013-04-10 20:48:00,55.5,22.0,29.91,NW,322,8.0,8.0,27,0.00,CLR,,0.00,WeatherDisplay:10.37,2013-04-11 02:48:00,
2013-04-10 20:49:00,55.5,22.0,29.91,WNW,293,8.1,8.1,27,0.00,CLR,,0.00,WeatherDisplay:10.37,2013-04-11 02:49:00,
2013-04-10 20:52:00,55.4,21.9,29.91,WNW,288,4.6,4.6,27,0.00,CLR,,0.00,WeatherDisplay:10.37,2013-04-11 02:52:00,
2013-04-10 20:53:00,55.4,21.9,29.91,NW,316,5.8,5.8,27,0.00,CLR,,0.00,WeatherDisplay:10.37,2013-04-11 02:53:00,
2013-04-10 20:54:00,55.4,21.9,29.91,WNW,298,5.0,8.0,27,0.00,CLR,,0.00,WeatherDisplay:10.37,2013-04-11 02:54:00,
2013-04-10 20:57:00,55.3,21.8,29.91,WNW,298,7.0,7.0,27,0.00,CLR,,0.00,WeatherDisplay:10.37,2013-04-11 02:57:00,
2013-04-10 20:58:00,55.3,21.8,29.92,NNW,328,6.9,6.9,27,0.00,CLR,,0.00,WeatherDisplay:10.37,2013-04-11 02:58:00,
2013-04-10 20:59:00,55.3,21.8,29.92,West,271,11.5,11.5,27,0.00,CLR,,0.00,WeatherDisplay:10.37,2013-04-11 02:59:00,
2013-04-10 21:00:00,55.3,21.8,29.92,WNW,288,11.5,11.5,27,0.00,CLR,,0.00,WeatherDisplay:10.37,2013-04-11 03:00:00,
2013-04-10 21:02:00,55.2,21.8,29.92,NW,325,6.9,6.9,27,0.00,CLR,,0.00,WeatherDisplay:10.37,2013-04-11 03:02:00,
2013-04-10 21:03:00,55.1,21.7,29.92,NW,326,5.8,5.8,27,0.00,CLR,,0.00,WeatherDisplay:10.37,2013-04-11 03:03:00,
2013-04-10 21:04:00,55.1,21.7,29.92,NW,315,5.8,5.8,27,0.00,CLR,,0.00,WeatherDisplay:10.37,2013-04-11 03:04:00,
2013-04-10 21:05:00,55.1,21.7,29.92,NW,311,4.6,4.6,27,0.00,CLR,,0.00,WeatherDisplay:10.37,2013-04-11 03:05:00,
2013-04-10 21:07:00,55.0,22.4,29.92,West,276,3.4,3.4,28,0.00,CLR,,0.00,WeatherDisplay:10.37,2013-04-11 03:07:00,
2013-04-10 21:08:00,54.9,22.4,29.92,WNW,292,3.4,3.4,28,0.00,CLR,,0.00,WeatherDisplay:10.37,2013-04-11 03:08:00,
2013-04-10 21:09:00,54.9,22.4,29.92,WNW,295,3.4,3.4,28,0.00,CLR,,0.00,WeatherDisplay:10.37,2013-04-11 03:09:00,
2013-04-10 21:10:00,54.9,22.4,29.92,NNW,333,4.6,4.6,28,0.00,CLR,,0.00,WeatherDisplay:10.37,2013-04-11 03:10:00,
2013-04-10 21:13:00,54.8,22.3,29.92,NNW,329,4.0,4.0,28,0.00,CLR,,0.00,WeatherDisplay:10.37,2013-04-11 03:13:00,
2013-04-10 21:14:00,54.7,22.2,29.92,North,352,5.8,5.8,28,0.00,CLR,,0.00,WeatherDisplay:10.37,2013-04-11 03:14:00,
2013-04-10 21:15:00,54.7,22.2,29.92,West,266,3.4,3.4,28,0.00,CLR,,0.00,WeatherDisplay:10.37,2013-04-11 03:15:00,
2013-04-10 21:18:00,54.7,22.2,29.92,WNW,297,6.9,6.9,28,0.00,CLR,,0.00,WeatherDisplay:10.37,2013-04-11 03:18:00,
2013-04-10 21:20:00,54.7,22.2,29.92,WNW,283,5.8,5.8,28,0.00,CLR,,0.00,WeatherDisplay:10.37,2013-04-11 03:20:00,
2013-04-10 21:23:00,54.6,22.1,29.92,North,349,10.3,10.3,28,0.00,CLR,,0.00,WeatherDisplay:10.37,2013-04-11 03:23:00,
2013-04-10 21:25:00,54.6,22.1,29.93,WNW,302,6.9,6.9,28,0.00,CLR,,0.00,WeatherDisplay:10.37,2013-04-11 03:25:00,
2013-04-10 21:28:00,54.5,22.9,29.93,WNW,293,4.6,4.6,29,0.00,CLR,,0.00,WeatherDisplay:10.37,2013-04-11 03:28:00,
2013-04-10 21:30:00,54.5,22.9,29.93,NW,322,3.4,3.4,29,0.00,CLR,,0.00,WeatherDisplay:10.37,2013-04-11 03:30:00,
2013-04-10 21:33:00,54.4,22.8,29.93,NW,324,6.9,6.9,29,0.00,CLR,,0.00,WeatherDisplay:10.37,2013-04-11 03:33:00,
2013-04-10 21:35:00,54.4,22.8,29.93,NW,305,3.4,3.4,29,0.00,CLR,,0.00,WeatherDisplay:10.37,2013-04-11 03:35:00,
2013-04-10 21:38:00,54.3,22.7,29.93,North,352,6.9,6.9,29,0.00,CLR,,0.00,WeatherDisplay:10.37,2013-04-11 03:38:00,
2013-04-10 21:39:00,54.3,22.7,29.93,WNW,288,3.4,3.4,29,0.00,CLR,,0.00,WeatherDisplay:10.37,2013-04-11 03:39:00,
2013-04-10 21:40:00,54.3,22.7,29.93,NW,312,4.6,4.6,29,0.00,CLR,,0.00,WeatherDisplay:10.37,2013-04-11 03:40:00,
2013-04-10 21:43:00,54.2,22.6,29.93,WNW,300,4.6,4.6,29,0.00,CLR,,0.00,WeatherDisplay:10.37,2013-04-11 03:43:00,
2013-04-10 21:44:00,54.2,22.6,29.93,NNE,32,3.4,3.4,29,0.00,CLR,,0.00,WeatherDisplay:10.37,2013-04-11 03:44:00,
2013-04-10 21:45:00,54.1,22.5,29.93,NW,322,3.0,3.0,29,0.00,CLR,,0.00,WeatherDisplay:10.37,2013-04-11 03:45:00,
2013-04-10 21:49:00,54.0,22.4,29.93,WNW,285,4.6,4.6,29,0.00,CLR,,0.00,WeatherDisplay:10.37,2013-04-11 03:49:00,
2013-04-10 21:50:00,54.0,22.4,29.93,NW,325,4.6,4.6,29,0.00,CLR,,0.00,WeatherDisplay:10.37,2013-04-11 03:50:00,
2013-04-10 21:54:00,53.9,23.1,29.93,WNW,298,2.0,7.0,30,0.00,CLR,,0.00,WeatherDisplay:10.37,2013-04-11 03:54:00,
2013-04-10 21:55:00,53.9,23.1,29.93,NW,322,6.9,6.9,30,0.00,CLR,,0.00,WeatherDisplay:10.37,2013-04-11 03:55:00,
2013-04-10 21:56:00,53.8,23.1,29.93,West,280,6.9,6.9,30,0.00,CLR,,0.00,WeatherDisplay:10.37,2013-04-11 03:56:00,
2013-04-10 21:59:00,53.7,23.0,29.93,NE,38,3.4,3.4,30,0.00,CLR,,0.00,WeatherDisplay:10.37,2013-04-11 03:59:00,
2013-04-10 22:00:00,53.7,23.0,29.94,NW,312,4.6,4.6,30,0.00,CLR,,0.00,WeatherDisplay:10.37,2013-04-11 04:00:00,
2013-04-10 22:05:00,53.5,22.8,29.94,NW,314,3.4,3.4,30,0.00,CLR,,0.00,WeatherDisplay:10.37,2013-04-11 04:05:00,
2013-04-10 22:10:00,53.3,22.6,29.94,North,5,5.0,5.0,30,0.00,CLR,,0.00,WeatherDisplay:10.37,2013-04-11 04:10:00,
2013-04-10 22:15:00,53.2,23.3,29.94,North,350,3.4,3.4,31,0.00,CLR,,0.00,WeatherDisplay:10.37,2013-04-11 04:15:00,
2013-04-10 22:20:00,52.9,23.0,29.94,NNE,17,3.4,3.4,31,0.00,CLR,,0.00,WeatherDisplay:10.37,2013-04-11 04:20:00,
2013-04-10 22:25:00,52.6,22.8,29.94,NW,321,3.4,3.4,31,0.00,CLR,,0.00,WeatherDisplay:10.37,2013-04-11 04:25:00,
2013-04-10 22:30:00,52.4,23.4,29.94,NW,323,3.4,3.4,32,0.00,CLR,,0.00,WeatherDisplay:10.37,2013-04-11 04:30:00,
2013-04-10 22:31:00,52.4,23.4,29.94,North,354,2.3,2.3,32,0.00,CLR,,0.00,WeatherDisplay:10.37,2013-04-11 04:31:00,
2013-04-10 22:35:00,52.2,23.2,29.94,NW,314,3.4,3.4,32,0.00,CLR,,0.00,WeatherDisplay:10.37,2013-04-11 04:35:00,
2013-04-10 22:36:00,52.2,23.2,29.94,NNW,338,3.4,3.4,32,0.00,CLR,,0.00,WeatherDisplay:10.37,2013-04-11 04:36:00,
2013-04-10 22:37:00,52.1,23.1,29.94,NNW,335,3.4,3.4,32,0.00,CLR,,0.00,WeatherDisplay:10.37,2013-04-11 04:37:00,
2013-04-10 22:40:00,52.0,23.8,29.94,WNW,295,3.4,3.4,33,0.00,CLR,,0.00,WeatherDisplay:10.37,2013-04-11 04:40:00,
2013-04-10 22:41:00,51.9,23.7,29.94,WNW,295,2.3,2.3,33,0.00,CLR,,0.00,WeatherDisplay:10.37,2013-04-11 04:41:00,
2013-04-10 22:42:00,51.9,23.7,29.94,WNW,300,0.0,0.0,33,0.00,CLR,,0.00,WeatherDisplay:10.37,2013-04-11 04:42:00,
2013-04-10 22:45:00,51.7,23.5,29.94,WNW,299,1.0,1.0,33,0.00,CLR,,0.00,WeatherDisplay:10.37,2013-04-11 04:45:00,
2013-04-10 22:46:00,51.7,23.5,29.94,NW,316,2.3,2.3,33,0.00,CLR,,0.00,WeatherDisplay:10.37,2013-04-11 04:46:00,
2013-04-10 22:47:00,51.7,23.5,29.94,NW,316,1.1,1.1,33,0.00,CLR,,0.00,WeatherDisplay:10.37,2013-04-11 04:47:00,
2013-04-10 22:51:00,51.5,23.3,29.94,NNW,328,1.1,1.1,33,0.00,CLR,,0.00,WeatherDisplay:10.37,2013-04-11 04:51:00,
2013-04-10 22:52:00,51.5,24.0,29.94,North,11,2.3,2.3,34,0.00,CLR,,0.00,WeatherDisplay:10.37,2013-04-11 04:52:00,
2013-04-10 22:56:00,51.4,23.9,29.94,NNW,345,3.4,3.4,34,0.00,CLR,,0.00,WeatherDisplay:10.37,2013-04-11 04:56:00,
2013-04-10 22:57:00,51.4,23.9,29.94,NW,321,9.2,9.2,34,0.00,CLR,,0.00,WeatherDisplay:10.37,2013-04-11 04:57:00,
2013-04-10 23:01:00,51.5,24.0,29.94,WNW,302,4.6,4.6,34,0.00,CLR,,0.00,WeatherDisplay:10.37,2013-04-11 05:01:00,
2013-04-10 23:02:00,51.5,24.0,29.94,NNE,23,4.0,4.0,34,0.00,CLR,,0.00,WeatherDisplay:10.37,2013-04-11 05:02:00,
2013-04-10 23:06:00,51.5,24.0,29.94,NNE,32,5.8,5.8,34,0.00,CLR,,0.00,WeatherDisplay:10.37,2013-04-11 05:06:00,
2013-04-10 23:07:00,51.5,24.0,29.94,WNW,296,5.8,5.8,34,0.00,CLR,,0.00,WeatherDisplay:10.37,2013-04-11 05:07:00,
2013-04-10 23:08:00,51.5,24.0,29.94,NNW,333,6.9,6.9,34,0.00,CLR,,0.00,WeatherDisplay:10.37,2013-04-11 05:08:00,
2013-04-10 23:11:00,51.5,24.0,29.94,West,279,3.4,3.4,34,0.00,CLR,,0.00,WeatherDisplay:10.37,2013-04-11 05:11:00,
2013-04-10 23:13:00,51.5,24.0,29.94,NW,317,9.2,9.2,34,0.00,CLR,,0.00,WeatherDisplay:10.37,2013-04-11 05:13:00,
2013-04-10 23:16:00,51.5,24.7,29.94,WNW,295,8.0,8.0,35,0.00,CLR,,0.00,WeatherDisplay:10.37,2013-04-11 05:16:00,
2013-04-10 23:18:00,51.5,24.0,29.94,NNW,333,10.3,10.3,34,0.00,CLR,,0.00,WeatherDisplay:10.37,2013-04-11 05:18:00,
2013-04-10 23:21:00,51.5,24.0,29.95,NNE,18,5.8,5.8,34,0.00,CLR,,0.00,WeatherDisplay:10.37,2013-04-11 05:21:00,
2013-04-10 23:23:00,51.5,24.0,29.95,NW,307,9.2,9.2,34,0.00,CLR,,0.00,WeatherDisplay:10.37,2013-04-11 05:23:00,
2013-04-10 23:27:00,51.4,23.9,29.95,ENE,75,8.1,8.1,34,0.00,CLR,,0.00,WeatherDisplay:10.37,2013-04-11 05:27:00,
2013-04-10 23:28:00,51.4,23.2,29.95,NNW,346,6.9,6.9,33,0.00,CLR,,0.00,WeatherDisplay:10.37,2013-04-11 05:28:00,
2013-04-10 23:32:00,51.2,23.0,29.95,WNW,285,9.2,9.2,33,0.00,CLR,,0.00,WeatherDisplay:10.37,2013-04-11 05:32:00,
2013-04-10 23:33:00,51.1,23.0,29.95,NW,322,5.8,5.8,33,0.00,CLR,,0.00,WeatherDisplay:10.37,2013-04-11 05:33:00,
2013-04-10 23:34:00,51.1,23.0,29.95,NNW,331,9.2,9.2,33,0.00,CLR,,0.00,WeatherDisplay:10.37,2013-04-11 05:34:00,
2013-04-10 23:37:00,50.9,22.8,29.95,North,10,6.9,6.9,33,0.00,CLR,,0.00,WeatherDisplay:10.37,2013-04-11 05:37:00,
2013-04-10 23:38:00,50.9,22.8,29.95,NNW,329,9.2,9.2,33,0.00,CLR,,0.00,WeatherDisplay:10.37,2013-04-11 05:38:00,
2013-04-10 23:39:00,50.9,22.8,29.95,North,6,6.9,6.9,33,0.00,CLR,,0.00,WeatherDisplay:10.37,2013-04-11 05:39:00,
2013-04-10 23:42:00,50.7,22.6,29.95,NW,319,9.0,9.0,33,0.00,CLR,,0.00,WeatherDisplay:10.37,2013-04-11 05:42:00,
2013-04-10 23:43:00,50.7,22.6,29.95,North,4,11.5,11.5,33,0.00,CLR,,0.00,WeatherDisplay:10.37,2013-04-11 05:43:00,
2013-04-10 23:44:00,50.7,22.6,29.95,NNW,340,7.0,12.0,33,0.00,CLR,,0.00,WeatherDisplay:10.37,2013-04-11 05:44:00,
2013-04-10 23:47:00,50.5,22.4,29.95,NNW,347,5.8,5.8,33,0.00,CLR,,0.00,WeatherDisplay:10.37,2013-04-11 05:47:00,
2013-04-10 23:48:00,50.5,22.4,29.95,NE,37,8.1,8.1,33,0.00,CLR,,0.00,WeatherDisplay:10.37,2013-04-11 05:48:00,
2013-04-10 23:49:00,50.5,22.4,29.95,NE,35,11.5,11.5,33,0.00,CLR,,0.00,WeatherDisplay:10.37,2013-04-11 05:49:00,
2013-04-10 23:52:00,50.5,22.4,29.95,NW,312,10.3,10.3,33,0.00,CLR,,0.00,WeatherDisplay:10.37,2013-04-11 05:52:00,
2013-04-10 23:54:00,50.5,22.4,29.95,NNW,342,7.0,12.0,33,0.00,CLR,,0.00,WeatherDisplay:10.37,2013-04-11 05:54:00,
2013-04-10 23:57:00,50.5,21.7,29.95,NE,46,11.5,11.5,32,0.00,CLR,,0.00,WeatherDisplay:10.37,2013-04-11 05:57:00,
2013-04-10 23:59:00,50.5,21.7,29.95,North,350,7.0,14.0,32,0.00,CLR,,0.00,WeatherDisplay:10.37,2013-04-11 05:59:00,